<?xml version="1.0" encoding="utf-8"?>
<gpx xmlns:xsi="http://www.w3.org/2001/XMLSchema-instance" xmlns:xsd="http://www.w3.org/2001/XMLSchema" version="1.1" creator="Shapelink.com" xmlns="http://www.topografix.com/GPX/1/1" xmlns:gpxtpx="http://www.garmin.com/xmlschemas/TrackPointExtension/v1">
  <metadata>
    <name>Cycling 29.35 km, 2020-06-21</name>
    <desc></desc>
    <author><name>Marian Moron</name></author> 
    <time>2020-06-21T12:26:18Z</time>
  </metadata>
  <trk>
    <name>Cycling 29.35 km, 2020-06-21</name>
    <trkseg>
      <trkpt lat="51.228709236441" lon="4.449208660393">
        <ele>0</ele>
        <time>2020-06-21T12:26:18Z</time>
      </trkpt>
      <trkpt lat="51.228781572238" lon="4.448975811211">
        <ele>0</ele>
        <time>2020-06-21T12:26:44Z</time>
      </trkpt>
      <trkpt lat="51.228830187258" lon="4.448900625568">
        <ele>0</ele>
        <time>2020-06-21T12:26:55Z</time>
      </trkpt>
      <trkpt lat="51.228932781714" lon="4.448713206284">
        <ele>0</ele>
        <time>2020-06-21T12:27:08Z</time>
      </trkpt>
      <trkpt lat="51.228949377876" lon="4.448634667881">
        <ele>0</ele>
        <time>2020-06-21T12:27:12Z</time>
      </trkpt>
      <trkpt lat="51.228444116944" lon="4.447668234811">
        <ele>0.8</ele>
        <time>2020-06-21T12:27:56Z</time>
      </trkpt>
      <trkpt lat="51.228312185838" lon="4.447479977337">
        <ele>2</ele>
        <time>2020-06-21T12:28:03Z</time>
      </trkpt>
      <trkpt lat="51.228268935234" lon="4.447491125264">
        <ele>2</ele>
        <time>2020-06-21T12:28:05Z</time>
      </trkpt>
      <trkpt lat="51.227827460561" lon="4.448030500529">
        <ele>2.2</ele>
        <time>2020-06-21T12:28:25Z</time>
      </trkpt>
      <trkpt lat="51.227377687807" lon="4.448514219978">
        <ele>0</ele>
        <time>2020-06-21T12:28:45Z</time>
      </trkpt>
      <trkpt lat="51.227002933058" lon="4.449137162786">
        <ele>0</ele>
        <time>2020-06-21T12:29:08Z</time>
      </trkpt>
      <trkpt lat="51.226572438674" lon="4.449585594436">
        <ele>0.8</ele>
        <time>2020-06-21T12:29:31Z</time>
      </trkpt>
      <trkpt lat="51.22651158608" lon="4.449582828409">
        <ele>0.6</ele>
        <time>2020-06-21T12:29:34Z</time>
      </trkpt>
      <trkpt lat="51.226259793804" lon="4.44895745485">
        <ele>0</ele>
        <time>2020-06-21T12:30:01Z</time>
      </trkpt>
      <trkpt lat="51.225890319652" lon="4.449576458165">
        <ele>0</ele>
        <time>2020-06-21T12:30:21Z</time>
      </trkpt>
      <trkpt lat="51.225371563861" lon="4.449798662334">
        <ele>0</ele>
        <time>2020-06-21T12:30:40Z</time>
      </trkpt>
      <trkpt lat="51.224852640432" lon="4.450124634425">
        <ele>0</ele>
        <time>2020-06-21T12:30:58Z</time>
      </trkpt>
      <trkpt lat="51.224753734012" lon="4.450260924119">
        <ele>0</ele>
        <time>2020-06-21T12:31:01Z</time>
      </trkpt>
      <trkpt lat="51.224370681182" lon="4.450868360412">
        <ele>0</ele>
        <time>2020-06-21T12:31:16Z</time>
      </trkpt>
      <trkpt lat="51.223938091323" lon="4.451387535298">
        <ele>0</ele>
        <time>2020-06-21T12:31:33Z</time>
      </trkpt>
      <trkpt lat="51.223397626411" lon="4.451282929186">
        <ele>0</ele>
        <time>2020-06-21T12:31:52Z</time>
      </trkpt>
      <trkpt lat="51.222863364105" lon="4.451125517104">
        <ele>0</ele>
        <time>2020-06-21T12:32:10Z</time>
      </trkpt>
      <trkpt lat="51.222311164533" lon="4.451177233427">
        <ele>0</ele>
        <time>2020-06-21T12:32:30Z</time>
      </trkpt>
      <trkpt lat="51.221793833665" lon="4.451457524163">
        <ele>0</ele>
        <time>2020-06-21T12:32:49Z</time>
      </trkpt>
      <trkpt lat="51.221259906635" lon="4.451690121888">
        <ele>0</ele>
        <time>2020-06-21T12:33:06Z</time>
      </trkpt>
      <trkpt lat="51.22072975146" lon="4.451856167327">
        <ele>0</ele>
        <time>2020-06-21T12:33:21Z</time>
      </trkpt>
      <trkpt lat="51.220175204956" lon="4.451983739845">
        <ele>0</ele>
        <time>2020-06-21T12:33:37Z</time>
      </trkpt>
      <trkpt lat="51.219629375628" lon="4.452032103408">
        <ele>0</ele>
        <time>2020-06-21T12:33:53Z</time>
      </trkpt>
      <trkpt lat="51.219057897686" lon="4.452097482228">
        <ele>2</ele>
        <time>2020-06-21T12:34:09Z</time>
      </trkpt>
      <trkpt lat="51.219020598231" lon="4.452072420347">
        <ele>1.8</ele>
        <time>2020-06-21T12:34:10Z</time>
      </trkpt>
      <trkpt lat="51.218959745637" lon="4.451980051809">
        <ele>1.2</ele>
        <time>2020-06-21T12:34:12Z</time>
      </trkpt>
      <trkpt lat="51.218860420122" lon="4.451812832904">
        <ele>0.2</ele>
        <time>2020-06-21T12:34:15Z</time>
      </trkpt>
      <trkpt lat="51.218771404344" lon="4.451755165432">
        <ele>0</ele>
        <time>2020-06-21T12:34:17Z</time>
      </trkpt>
      <trkpt lat="51.218259856987" lon="4.451923306346">
        <ele>0</ele>
        <time>2020-06-21T12:34:33Z</time>
      </trkpt>
      <trkpt lat="51.218210739053" lon="4.452806004235">
        <ele>0</ele>
        <time>2020-06-21T12:34:49Z</time>
      </trkpt>
      <trkpt lat="51.21820847594" lon="4.45368987559">
        <ele>0</ele>
        <time>2020-06-21T12:35:04Z</time>
      </trkpt>
      <trkpt lat="51.218161118205" lon="4.454581123017">
        <ele>0</ele>
        <time>2020-06-21T12:35:22Z</time>
      </trkpt>
      <trkpt lat="51.218100768525" lon="4.455452253884">
        <ele>0</ele>
        <time>2020-06-21T12:35:42Z</time>
      </trkpt>
      <trkpt lat="51.218040502664" lon="4.456336125239">
        <ele>0</ele>
        <time>2020-06-21T12:36:02Z</time>
      </trkpt>
      <trkpt lat="51.217995240404" lon="4.457191917229">
        <ele>0</ele>
        <time>2020-06-21T12:36:23Z</time>
      </trkpt>
      <trkpt lat="51.217948385583" lon="4.458082745561">
        <ele>0</ele>
        <time>2020-06-21T12:36:44Z</time>
      </trkpt>
      <trkpt lat="51.217907314273" lon="4.458968041839">
        <ele>0</ele>
        <time>2020-06-21T12:37:00Z</time>
      </trkpt>
      <trkpt lat="51.217857106692" lon="4.459882674767">
        <ele>0</ele>
        <time>2020-06-21T12:37:16Z</time>
      </trkpt>
      <trkpt lat="51.217805222731" lon="4.460776604402">
        <ele>0</ele>
        <time>2020-06-21T12:37:32Z</time>
      </trkpt>
      <trkpt lat="51.217827602404" lon="4.461663996155">
        <ele>0</ele>
        <time>2020-06-21T12:37:49Z</time>
      </trkpt>
      <trkpt lat="51.217793236614" lon="4.462525404018">
        <ele>0</ele>
        <time>2020-06-21T12:38:04Z</time>
      </trkpt>
      <trkpt lat="51.21774998601" lon="4.463395193781">
        <ele>0</ele>
        <time>2020-06-21T12:38:23Z</time>
      </trkpt>
      <trkpt lat="51.217691480348" lon="4.464258110386">
        <ele>1</ele>
        <time>2020-06-21T12:38:43Z</time>
      </trkpt>
      <trkpt lat="51.217698772601" lon="4.465136784963">
        <ele>0</ele>
        <time>2020-06-21T12:39:02Z</time>
      </trkpt>
      <trkpt lat="51.217636914179" lon="4.465995426799">
        <ele>0</ele>
        <time>2020-06-21T12:39:17Z</time>
      </trkpt>
      <trkpt lat="51.217602716027" lon="4.466872508815">
        <ele>0</ele>
        <time>2020-06-21T12:39:34Z</time>
      </trkpt>
      <trkpt lat="51.217557872862" lon="4.467773814522">
        <ele>0</ele>
        <time>2020-06-21T12:39:51Z</time>
      </trkpt>
      <trkpt lat="51.217508754928" lon="4.468665397225">
        <ele>0</ele>
        <time>2020-06-21T12:40:08Z</time>
      </trkpt>
      <trkpt lat="51.217472042206" lon="4.469520686301">
        <ele>0</ele>
        <time>2020-06-21T12:40:25Z</time>
      </trkpt>
      <trkpt lat="51.217420493521" lon="4.470410173529">
        <ele>0</ele>
        <time>2020-06-21T12:40:44Z</time>
      </trkpt>
      <trkpt lat="51.217365089162" lon="4.471263870044">
        <ele>0</ele>
        <time>2020-06-21T12:41:01Z</time>
      </trkpt>
      <trkpt lat="51.217358635099" lon="4.472160733344">
        <ele>0</ele>
        <time>2020-06-21T12:41:20Z</time>
      </trkpt>
      <trkpt lat="51.217336003969" lon="4.473042676862">
        <ele>0</ele>
        <time>2020-06-21T12:41:37Z</time>
      </trkpt>
      <trkpt lat="51.217319910721" lon="4.473930822986">
        <ele>0</ele>
        <time>2020-06-21T12:41:56Z</time>
      </trkpt>
      <trkpt lat="51.217274313185" lon="4.474816035445">
        <ele>0</ele>
        <time>2020-06-21T12:42:13Z</time>
      </trkpt>
      <trkpt lat="51.217248664571" lon="4.475683562095">
        <ele>0</ele>
        <time>2020-06-21T12:42:31Z</time>
      </trkpt>
      <trkpt lat="51.217217064808" lon="4.476552429849">
        <ele>0</ele>
        <time>2020-06-21T12:42:50Z</time>
      </trkpt>
      <trkpt lat="51.217167360141" lon="4.477374358963">
        <ele>0</ele>
        <time>2020-06-21T12:43:12Z</time>
      </trkpt>
      <trkpt lat="51.21713391636" lon="4.477366312339">
        <ele>0.4</ele>
        <time>2020-06-21T12:47:10Z</time>
      </trkpt>
      <trkpt lat="51.217104998805" lon="4.4774098144">
        <ele>0.8</ele>
        <time>2020-06-21T12:47:13Z</time>
      </trkpt>
      <trkpt lat="51.216593954362" lon="4.477605783222">
        <ele>0</ele>
        <time>2020-06-21T12:47:31Z</time>
      </trkpt>
      <trkpt lat="51.216064302101" lon="4.477767637711">
        <ele>0</ele>
        <time>2020-06-21T12:47:45Z</time>
      </trkpt>
      <trkpt lat="51.215696588148" lon="4.478394017098">
        <ele>0</ele>
        <time>2020-06-21T12:47:59Z</time>
      </trkpt>
      <trkpt lat="51.215544289025" lon="4.478874719063">
        <ele>0</ele>
        <time>2020-06-21T12:48:09Z</time>
      </trkpt>
      <trkpt lat="51.216006969905" lon="4.479354499019">
        <ele>0</ele>
        <time>2020-06-21T12:48:27Z</time>
      </trkpt>
      <trkpt lat="51.216111408379" lon="4.480146337112">
        <ele>0</ele>
        <time>2020-06-21T12:48:44Z</time>
      </trkpt>
      <trkpt lat="51.216528910818" lon="4.480489240641">
        <ele>0</ele>
        <time>2020-06-21T12:49:00Z</time>
      </trkpt>
      <trkpt lat="51.216552044862" lon="4.480587141233">
        <ele>0</ele>
        <time>2020-06-21T12:49:02Z</time>
      </trkpt>
      <trkpt lat="51.21642229305" lon="4.481426672337">
        <ele>0</ele>
        <time>2020-06-21T12:49:21Z</time>
      </trkpt>
      <trkpt lat="51.216437212832" lon="4.481459445566">
        <ele>0</ele>
        <time>2020-06-21T12:49:22Z</time>
      </trkpt>
      <trkpt lat="51.216965021075" lon="4.481587185722">
        <ele>0</ele>
        <time>2020-06-21T12:49:46Z</time>
      </trkpt>
      <trkpt lat="51.217012211172" lon="4.48195699515">
        <ele>0</ele>
        <time>2020-06-21T12:50:07Z</time>
      </trkpt>
      <trkpt lat="51.217038530338" lon="4.482224042484">
        <ele>1</ele>
        <time>2020-06-21T12:50:16Z</time>
      </trkpt>
      <trkpt lat="51.216488593879" lon="4.482407438456">
        <ele>0</ele>
        <time>2020-06-21T12:50:35Z</time>
      </trkpt>
      <trkpt lat="51.216143511056" lon="4.482438367667">
        <ele>0</ele>
        <time>2020-06-21T12:50:56Z</time>
      </trkpt>
      <trkpt lat="51.216080646806" lon="4.482410036845">
        <ele>0.2</ele>
        <time>2020-06-21T12:53:52Z</time>
      </trkpt>
      <trkpt lat="51.215536410039" lon="4.482356308866">
        <ele>0</ele>
        <time>2020-06-21T12:54:11Z</time>
      </trkpt>
      <trkpt lat="51.215526016483" lon="4.483225092801">
        <ele>0</ele>
        <time>2020-06-21T12:54:32Z</time>
      </trkpt>
      <trkpt lat="51.215559208807" lon="4.484094128193">
        <ele>0.4</ele>
        <time>2020-06-21T12:54:54Z</time>
      </trkpt>
      <trkpt lat="51.215529536881" lon="4.484952518572">
        <ele>0.6</ele>
        <time>2020-06-21T12:55:15Z</time>
      </trkpt>
      <trkpt lat="51.21550279862" lon="4.485821553964">
        <ele>0</ele>
        <time>2020-06-21T12:55:40Z</time>
      </trkpt>
      <trkpt lat="51.215515287651" lon="4.486685476397">
        <ele>0</ele>
        <time>2020-06-21T12:55:56Z</time>
      </trkpt>
      <trkpt lat="51.215965228043" lon="4.487087053226">
        <ele>0</ele>
        <time>2020-06-21T12:56:11Z</time>
      </trkpt>
      <trkpt lat="51.216512230837" lon="4.486922600348">
        <ele>0</ele>
        <time>2020-06-21T12:56:27Z</time>
      </trkpt>
      <trkpt lat="51.217058311622" lon="4.48676150023">
        <ele>0</ele>
        <time>2020-06-21T12:56:45Z</time>
      </trkpt>
      <trkpt lat="51.217101897502" lon="4.486769798311">
        <ele>0</ele>
        <time>2020-06-21T12:56:47Z</time>
      </trkpt>
      <trkpt lat="51.21719426604" lon="4.487634558934">
        <ele>0</ele>
        <time>2020-06-21T12:57:08Z</time>
      </trkpt>
      <trkpt lat="51.2172562921" lon="4.48851331733">
        <ele>0</ele>
        <time>2020-06-21T12:57:27Z</time>
      </trkpt>
      <trkpt lat="51.217344553507" lon="4.489407582241">
        <ele>0</ele>
        <time>2020-06-21T12:57:43Z</time>
      </trkpt>
      <trkpt lat="51.217375231261" lon="4.489669851892">
        <ele>0</ele>
        <time>2020-06-21T12:57:47Z</time>
      </trkpt>
      <trkpt lat="51.21744488485" lon="4.490521033837">
        <ele>0</ele>
        <time>2020-06-21T12:58:01Z</time>
      </trkpt>
      <trkpt lat="51.217458463528" lon="4.490860919882">
        <ele>0</ele>
        <time>2020-06-21T12:58:07Z</time>
      </trkpt>
      <trkpt lat="51.217513448792" lon="4.491739762097">
        <ele>0</ele>
        <time>2020-06-21T12:58:23Z</time>
      </trkpt>
      <trkpt lat="51.217569942798" lon="4.492602930159">
        <ele>0</ele>
        <time>2020-06-21T12:58:40Z</time>
      </trkpt>
      <trkpt lat="51.217613444859" lon="4.49349887145">
        <ele>0</ele>
        <time>2020-06-21T12:58:57Z</time>
      </trkpt>
      <trkpt lat="51.217722241921" lon="4.49436388353">
        <ele>0</ele>
        <time>2020-06-21T12:59:12Z</time>
      </trkpt>
      <trkpt lat="51.218000018087" lon="4.495105430223">
        <ele>0</ele>
        <time>2020-06-21T12:59:27Z</time>
      </trkpt>
      <trkpt lat="51.218004879589" lon="4.495237193691">
        <ele>0</ele>
        <time>2020-06-21T12:59:29Z</time>
      </trkpt>
      <trkpt lat="51.217949559049" lon="4.495321767062">
        <ele>0</ele>
        <time>2020-06-21T12:59:31Z</time>
      </trkpt>
      <trkpt lat="51.217428875421" lon="4.495615971752">
        <ele>0</ele>
        <time>2020-06-21T12:59:50Z</time>
      </trkpt>
      <trkpt lat="51.216885560663" lon="4.495581103048">
        <ele>1.4</ele>
        <time>2020-06-21T13:00:11Z</time>
      </trkpt>
      <trkpt lat="51.216322464621" lon="4.495437185825">
        <ele>0</ele>
        <time>2020-06-21T13:00:27Z</time>
      </trkpt>
      <trkpt lat="51.215779568958" lon="4.495185225911">
        <ele>0</ele>
        <time>2020-06-21T13:00:44Z</time>
      </trkpt>
      <trkpt lat="51.215311607481" lon="4.494931589617">
        <ele>0</ele>
        <time>2020-06-21T13:01:04Z</time>
      </trkpt>
      <trkpt lat="51.215336753181" lon="4.49495899843">
        <ele>0</ele>
        <time>2020-06-21T13:01:25Z</time>
      </trkpt>
      <trkpt lat="51.215311272205" lon="4.495327215297">
        <ele>0</ele>
        <time>2020-06-21T13:01:40Z</time>
      </trkpt>
      <trkpt lat="51.215252515086" lon="4.495318749578">
        <ele>0</ele>
        <time>2020-06-21T13:01:55Z</time>
      </trkpt>
      <trkpt lat="51.215147741336" lon="4.495312463153">
        <ele>0</ele>
        <time>2020-06-21T13:02:00Z</time>
      </trkpt>
      <trkpt lat="51.215120164885" lon="4.495365185304">
        <ele>0</ele>
        <time>2020-06-21T13:02:02Z</time>
      </trkpt>
      <trkpt lat="51.214743649937" lon="4.495934903047">
        <ele>0</ele>
        <time>2020-06-21T13:02:21Z</time>
      </trkpt>
      <trkpt lat="51.214184409569" lon="4.49603691077">
        <ele>0</ele>
        <time>2020-06-21T13:02:41Z</time>
      </trkpt>
      <trkpt lat="51.213655260222" lon="4.496260456043">
        <ele>1.6</ele>
        <time>2020-06-21T13:02:59Z</time>
      </trkpt>
      <trkpt lat="51.213130637101" lon="4.496471260828">
        <ele>0.8</ele>
        <time>2020-06-21T13:03:17Z</time>
      </trkpt>
      <trkpt lat="51.212592854397" lon="4.496319799895">
        <ele>0</ele>
        <time>2020-06-21T13:03:37Z</time>
      </trkpt>
      <trkpt lat="51.21246519806" lon="4.496311166538">
        <ele>0</ele>
        <time>2020-06-21T13:03:47Z</time>
      </trkpt>
      <trkpt lat="51.212201503486" lon="4.497082720433">
        <ele>0</ele>
        <time>2020-06-21T13:04:05Z</time>
      </trkpt>
      <trkpt lat="51.211988351769" lon="4.497912947628">
        <ele>7.2</ele>
        <time>2020-06-21T13:04:21Z</time>
      </trkpt>
      <trkpt lat="51.211790958024" lon="4.498324498918">
        <ele>8.8</ele>
        <time>2020-06-21T13:04:47Z</time>
      </trkpt>
      <trkpt lat="51.211825323814" lon="4.498400858027">
        <ele>10</ele>
        <time>2020-06-21T13:04:59Z</time>
      </trkpt>
      <trkpt lat="51.211873603558" lon="4.49930082263">
        <ele>6</ele>
        <time>2020-06-21T13:05:18Z</time>
      </trkpt>
      <trkpt lat="51.211885673494" lon="4.500161140846">
        <ele>0</ele>
        <time>2020-06-21T13:05:34Z</time>
      </trkpt>
      <trkpt lat="51.211892546652" lon="4.501031936437">
        <ele>0.6</ele>
        <time>2020-06-21T13:05:49Z</time>
      </trkpt>
      <trkpt lat="51.211901766742" lon="4.50189502068">
        <ele>2</ele>
        <time>2020-06-21T13:06:04Z</time>
      </trkpt>
      <trkpt lat="51.211911908841" lon="4.502763888434">
        <ele>5</ele>
        <time>2020-06-21T13:06:21Z</time>
      </trkpt>
      <trkpt lat="51.211912663212" lon="4.503622278813">
        <ele>0</ele>
        <time>2020-06-21T13:06:37Z</time>
      </trkpt>
      <trkpt lat="51.211925822795" lon="4.504489134911">
        <ele>0</ele>
        <time>2020-06-21T13:06:53Z</time>
      </trkpt>
      <trkpt lat="51.211944933527" lon="4.505349369308">
        <ele>0</ele>
        <time>2020-06-21T13:07:09Z</time>
      </trkpt>
      <trkpt lat="51.212034619857" lon="4.506226367505">
        <ele>0</ele>
        <time>2020-06-21T13:07:26Z</time>
      </trkpt>
      <trkpt lat="51.212050042553" lon="4.507117698751">
        <ele>0</ele>
        <time>2020-06-21T13:07:44Z</time>
      </trkpt>
      <trkpt lat="51.212064040326" lon="4.507977430234">
        <ele>0</ele>
        <time>2020-06-21T13:08:00Z</time>
      </trkpt>
      <trkpt lat="51.212214327793" lon="4.508832300215">
        <ele>0</ele>
        <time>2020-06-21T13:08:16Z</time>
      </trkpt>
      <trkpt lat="51.212469808105" lon="4.509640147737">
        <ele>3.6</ele>
        <time>2020-06-21T13:08:32Z</time>
      </trkpt>
      <trkpt lat="51.2127216842" lon="4.510425447948">
        <ele>3.6</ele>
        <time>2020-06-21T13:08:48Z</time>
      </trkpt>
      <trkpt lat="51.212970961906" lon="4.511236899687">
        <ele>3.4</ele>
        <time>2020-06-21T13:09:05Z</time>
      </trkpt>
      <trkpt lat="51.21321789268" lon="4.512000742234">
        <ele>4.8</ele>
        <time>2020-06-21T13:09:21Z</time>
      </trkpt>
      <trkpt lat="51.213456190097" lon="4.512802806245">
        <ele>5</ele>
        <time>2020-06-21T13:09:38Z</time>
      </trkpt>
      <trkpt lat="51.213758944325" lon="4.51356262548">
        <ele>4.4</ele>
        <time>2020-06-21T13:09:53Z</time>
      </trkpt>
      <trkpt lat="51.213941753564" lon="4.514399222919">
        <ele>2.8</ele>
        <time>2020-06-21T13:10:10Z</time>
      </trkpt>
      <trkpt lat="51.213944100496" lon="4.51525828385">
        <ele>0</ele>
        <time>2020-06-21T13:10:27Z</time>
      </trkpt>
      <trkpt lat="51.213838320918" lon="4.516141819929">
        <ele>0</ele>
        <time>2020-06-21T13:10:46Z</time>
      </trkpt>
      <trkpt lat="51.213734888272" lon="4.517022003248">
        <ele>0</ele>
        <time>2020-06-21T13:11:04Z</time>
      </trkpt>
      <trkpt lat="51.213650231082" lon="4.517899169083">
        <ele>1.8</ele>
        <time>2020-06-21T13:11:22Z</time>
      </trkpt>
      <trkpt lat="51.213629192513" lon="4.518765522267">
        <ele>2.6</ele>
        <time>2020-06-21T13:11:39Z</time>
      </trkpt>
      <trkpt lat="51.213654422032" lon="4.5196294447">
        <ele>0.8</ele>
        <time>2020-06-21T13:11:56Z</time>
      </trkpt>
      <trkpt lat="51.213686943804" lon="4.520487248346">
        <ele>2.2</ele>
        <time>2020-06-21T13:12:11Z</time>
      </trkpt>
      <trkpt lat="51.213709742572" lon="4.521382351447">
        <ele>4.2</ele>
        <time>2020-06-21T13:12:28Z</time>
      </trkpt>
      <trkpt lat="51.213738324851" lon="4.521846121974">
        <ele>2.2</ele>
        <time>2020-06-21T13:12:43Z</time>
      </trkpt>
      <trkpt lat="51.213753160814" lon="4.52197050937">
        <ele>4</ele>
        <time>2020-06-21T13:15:00Z</time>
      </trkpt>
      <trkpt lat="51.21375181971" lon="4.52204929923">
        <ele>3.8</ele>
        <time>2020-06-21T13:15:03Z</time>
      </trkpt>
      <trkpt lat="51.213789370622" lon="4.52291431131">
        <ele>7</ele>
        <time>2020-06-21T13:15:21Z</time>
      </trkpt>
      <trkpt lat="51.213879895142" lon="4.523794829905">
        <ele>6</ele>
        <time>2020-06-21T13:15:39Z</time>
      </trkpt>
      <trkpt lat="51.214044180382" lon="4.524627068756">
        <ele>6.8</ele>
        <time>2020-06-21T13:15:56Z</time>
      </trkpt>
      <trkpt lat="51.214198910256" lon="4.525459475245">
        <ele>5.8</ele>
        <time>2020-06-21T13:16:11Z</time>
      </trkpt>
      <trkpt lat="51.214368559912" lon="4.526329684103">
        <ele>5.6</ele>
        <time>2020-06-21T13:16:28Z</time>
      </trkpt>
      <trkpt lat="51.214524714709" lon="4.52718321298">
        <ele>7.2</ele>
        <time>2020-06-21T13:16:45Z</time>
      </trkpt>
      <trkpt lat="51.2145573203" lon="4.527408266995">
        <ele>5.2</ele>
        <time>2020-06-21T13:16:51Z</time>
      </trkpt>
      <trkpt lat="51.214531001134" lon="4.527436765455">
        <ele>4.2</ele>
        <time>2020-06-21T13:16:53Z</time>
      </trkpt>
      <trkpt lat="51.214357747261" lon="4.527581437049">
        <ele>2.2</ele>
        <time>2020-06-21T13:17:05Z</time>
      </trkpt>
      <trkpt lat="51.214351879931" lon="4.527574396253">
        <ele>1.4</ele>
        <time>2020-06-21T13:17:12Z</time>
      </trkpt>
      <trkpt lat="51.214304941291" lon="4.527568445104">
        <ele>1.4</ele>
        <time>2020-06-21T13:17:18Z</time>
      </trkpt>
      <trkpt lat="51.214186924139" lon="4.527620580522">
        <ele>3</ele>
        <time>2020-06-21T13:17:26Z</time>
      </trkpt>
      <trkpt lat="51.214196647143" lon="4.527594345175">
        <ele>2.8</ele>
        <time>2020-06-21T13:17:29Z</time>
      </trkpt>
      <trkpt lat="51.21415834186" lon="4.527620245246">
        <ele>2.4</ele>
        <time>2020-06-21T13:17:34Z</time>
      </trkpt>
      <trkpt lat="51.214118695473" lon="4.52757464771">
        <ele>2.4</ele>
        <time>2020-06-21T13:17:37Z</time>
      </trkpt>
      <trkpt lat="51.213594072352" lon="4.527619323237">
        <ele>6</ele>
        <time>2020-06-21T13:18:10Z</time>
      </trkpt>
      <trkpt lat="51.213430541483" lon="4.527641283815">
        <ele>7.8</ele>
        <time>2020-06-21T13:18:20Z</time>
      </trkpt>
      <trkpt lat="51.21339307439" lon="4.527655197769">
        <ele>7.6</ele>
        <time>2020-06-21T13:18:22Z</time>
      </trkpt>
      <trkpt lat="51.213312524331" lon="4.52764170291">
        <ele>7</ele>
        <time>2020-06-21T13:18:27Z</time>
      </trkpt>
      <trkpt lat="51.213276398342" lon="4.52764757024">
        <ele>6.6</ele>
        <time>2020-06-21T13:18:29Z</time>
      </trkpt>
      <trkpt lat="51.213224430562" lon="4.527631393173">
        <ele>6.6</ele>
        <time>2020-06-21T13:18:32Z</time>
      </trkpt>
      <trkpt lat="51.213186460555" lon="4.527645139489">
        <ele>6.6</ele>
        <time>2020-06-21T13:18:34Z</time>
      </trkpt>
      <trkpt lat="51.213107419238" lon="4.527563415964">
        <ele>6.8</ele>
        <time>2020-06-21T13:18:39Z</time>
      </trkpt>
      <trkpt lat="51.213074059276" lon="4.527581604687">
        <ele>7.2</ele>
        <time>2020-06-21T13:18:41Z</time>
      </trkpt>
      <trkpt lat="51.213023264962" lon="4.527617814495">
        <ele>7.4</ele>
        <time>2020-06-21T13:18:44Z</time>
      </trkpt>
      <trkpt lat="51.212973727933" lon="4.527576575547">
        <ele>7.6</ele>
        <time>2020-06-21T13:18:47Z</time>
      </trkpt>
      <trkpt lat="51.212940116514" lon="4.52759057332">
        <ele>7.6</ele>
        <time>2020-06-21T13:18:49Z</time>
      </trkpt>
      <trkpt lat="51.212903655249" lon="4.52761823359">
        <ele>7</ele>
        <time>2020-06-21T13:18:51Z</time>
      </trkpt>
      <trkpt lat="51.212841880646" lon="4.527554279693">
        <ele>6.4</ele>
        <time>2020-06-21T13:18:55Z</time>
      </trkpt>
      <trkpt lat="51.21275018266" lon="4.527593423166">
        <ele>6.4</ele>
        <time>2020-06-21T13:19:00Z</time>
      </trkpt>
      <trkpt lat="51.212221620046" lon="4.527553525322">
        <ele>8.4</ele>
        <time>2020-06-21T13:19:27Z</time>
      </trkpt>
      <trkpt lat="51.211672521777" lon="4.527540701015">
        <ele>6</ele>
        <time>2020-06-21T13:19:50Z</time>
      </trkpt>
      <trkpt lat="51.211472278186" lon="4.527636841408">
        <ele>5.2</ele>
        <time>2020-06-21T13:19:55Z</time>
      </trkpt>
      <trkpt lat="51.21101512936" lon="4.528137576114">
        <ele>2.8</ele>
        <time>2020-06-21T13:20:05Z</time>
      </trkpt>
      <trkpt lat="51.210492434076" lon="4.528608387437">
        <ele>1</ele>
        <time>2020-06-21T13:20:14Z</time>
      </trkpt>
      <trkpt lat="51.209977198683" lon="4.529073415249">
        <ele>0</ele>
        <time>2020-06-21T13:20:23Z</time>
      </trkpt>
      <trkpt lat="51.209457604702" lon="4.529376923848">
        <ele>0.6</ele>
        <time>2020-06-21T13:20:35Z</time>
      </trkpt>
      <trkpt lat="51.208927533346" lon="4.529656124937">
        <ele>3.8</ele>
        <time>2020-06-21T13:20:56Z</time>
      </trkpt>
      <trkpt lat="51.208416572722" lon="4.529967009608">
        <ele>7</ele>
        <time>2020-06-21T13:21:15Z</time>
      </trkpt>
      <trkpt lat="51.207983228492" lon="4.530104053673">
        <ele>6.8</ele>
        <time>2020-06-21T13:21:35Z</time>
      </trkpt>
      <trkpt lat="51.207978786085" lon="4.530153925978">
        <ele>6</ele>
        <time>2020-06-21T13:21:38Z</time>
      </trkpt>
      <trkpt lat="51.20835303792" lon="4.530772594017">
        <ele>4.4</ele>
        <time>2020-06-21T13:21:58Z</time>
      </trkpt>
      <trkpt lat="51.208675824889" lon="4.531482038033">
        <ele>7.4</ele>
        <time>2020-06-21T13:22:17Z</time>
      </trkpt>
      <trkpt lat="51.208868776227" lon="4.532274211402">
        <ele>9.4</ele>
        <time>2020-06-21T13:22:35Z</time>
      </trkpt>
      <trkpt lat="51.208743131546" lon="4.533138636749">
        <ele>9.8</ele>
        <time>2020-06-21T13:22:55Z</time>
      </trkpt>
      <trkpt lat="51.208653529035" lon="4.533989986332">
        <ele>12</ele>
        <time>2020-06-21T13:23:13Z</time>
      </trkpt>
      <trkpt lat="51.208518496626" lon="4.534824404477">
        <ele>5.4</ele>
        <time>2020-06-21T13:23:35Z</time>
      </trkpt>
      <trkpt lat="51.208381787837" lon="4.535690925299">
        <ele>8.2</ele>
        <time>2020-06-21T13:23:53Z</time>
      </trkpt>
      <trkpt lat="51.208239211718" lon="4.536540933778">
        <ele>6.8</ele>
        <time>2020-06-21T13:24:12Z</time>
      </trkpt>
      <trkpt lat="51.208053636452" lon="4.537352636974">
        <ele>8.8</ele>
        <time>2020-06-21T13:24:33Z</time>
      </trkpt>
      <trkpt lat="51.207987167985" lon="4.538179762866">
        <ele>9.4</ele>
        <time>2020-06-21T13:24:52Z</time>
      </trkpt>
      <trkpt lat="51.208346835314" lon="4.538822738415">
        <ele>8</ele>
        <time>2020-06-21T13:25:09Z</time>
      </trkpt>
      <trkpt lat="51.208569793854" lon="4.539632597593">
        <ele>8.8</ele>
        <time>2020-06-21T13:25:27Z</time>
      </trkpt>
      <trkpt lat="51.20886852477" lon="4.540341538695">
        <ele>12.4</ele>
        <time>2020-06-21T13:25:46Z</time>
      </trkpt>
      <trkpt lat="51.209174045025" lon="4.541024747364">
        <ele>10</ele>
        <time>2020-06-21T13:26:08Z</time>
      </trkpt>
      <trkpt lat="51.209283596458" lon="4.541893363661">
        <ele>9.4</ele>
        <time>2020-06-21T13:26:30Z</time>
      </trkpt>
      <trkpt lat="51.209396081556" lon="4.542738259181">
        <ele>15.6</ele>
        <time>2020-06-21T13:26:55Z</time>
      </trkpt>
      <trkpt lat="51.209534969639" lon="4.543572928783">
        <ele>18.2</ele>
        <time>2020-06-21T13:27:17Z</time>
      </trkpt>
      <trkpt lat="51.209506219722" lon="4.544396785734">
        <ele>12.4</ele>
        <time>2020-06-21T13:27:39Z</time>
      </trkpt>
      <trkpt lat="51.209082347039" lon="4.544932556782">
        <ele>7.2</ele>
        <time>2020-06-21T13:28:02Z</time>
      </trkpt>
      <trkpt lat="51.208799541733" lon="4.545299264907">
        <ele>4.4</ele>
        <time>2020-06-21T13:28:17Z</time>
      </trkpt>
      <trkpt lat="51.20817450345" lon="4.546134856518">
        <ele>5.2</ele>
        <time>2020-06-21T13:28:59Z</time>
      </trkpt>
      <trkpt lat="51.207699082082" lon="4.546570296223">
        <ele>7.4</ele>
        <time>2020-06-21T13:29:25Z</time>
      </trkpt>
      <trkpt lat="51.207159036265" lon="4.546606925126">
        <ele>22.8</ele>
        <time>2020-06-21T13:29:53Z</time>
      </trkpt>
      <trkpt lat="51.206610608548" lon="4.546643218753">
        <ele>14.2</ele>
        <time>2020-06-21T13:30:17Z</time>
      </trkpt>
      <trkpt lat="51.206061342641" lon="4.546622012546">
        <ele>9.4</ele>
        <time>2020-06-21T13:30:43Z</time>
      </trkpt>
      <trkpt lat="51.2055216321" lon="4.546607847135">
        <ele>7.6</ele>
        <time>2020-06-21T13:31:10Z</time>
      </trkpt>
      <trkpt lat="51.204989968183" lon="4.546434174167">
        <ele>5.8</ele>
        <time>2020-06-21T13:31:37Z</time>
      </trkpt>
      <trkpt lat="51.204835657404" lon="4.546365442587">
        <ele>5.8</ele>
        <time>2020-06-21T13:31:47Z</time>
      </trkpt>
      <trkpt lat="51.204721328288" lon="4.546329316598">
        <ele>5.8</ele>
        <time>2020-06-21T13:31:53Z</time>
      </trkpt>
      <trkpt lat="51.204187317439" lon="4.546275337162">
        <ele>5.4</ele>
        <time>2020-06-21T13:32:22Z</time>
      </trkpt>
      <trkpt lat="51.203640482283" lon="4.546448591035">
        <ele>7.6</ele>
        <time>2020-06-21T13:32:52Z</time>
      </trkpt>
      <trkpt lat="51.20310345395" lon="4.546596950665">
        <ele>8.8</ele>
        <time>2020-06-21T13:33:17Z</time>
      </trkpt>
      <trkpt lat="51.202604647081" lon="4.546908002974">
        <ele>9.4</ele>
        <time>2020-06-21T13:33:36Z</time>
      </trkpt>
      <trkpt lat="51.202236262576" lon="4.547525749004">
        <ele>3.8</ele>
        <time>2020-06-21T13:33:56Z</time>
      </trkpt>
      <trkpt lat="51.202039120288" lon="4.548334686173">
        <ele>5.6</ele>
        <time>2020-06-21T13:34:14Z</time>
      </trkpt>
      <trkpt lat="51.201825968571" lon="4.549124931705">
        <ele>5</ele>
        <time>2020-06-21T13:34:35Z</time>
      </trkpt>
      <trkpt lat="51.201739635001" lon="4.549495160228">
        <ele>11</ele>
        <time>2020-06-21T13:34:46Z</time>
      </trkpt>
      <trkpt lat="51.20174307158" lon="4.549507230164">
        <ele>12</ele>
        <time>2020-06-21T13:34:49Z</time>
      </trkpt>
      <trkpt lat="51.201752710765" lon="4.549605885127">
        <ele>14.6</ele>
        <time>2020-06-21T13:35:34Z</time>
      </trkpt>
      <trkpt lat="51.201427409226" lon="4.550212315592">
        <ele>9.6</ele>
        <time>2020-06-21T13:36:03Z</time>
      </trkpt>
      <trkpt lat="51.200880657889" lon="4.550198820733">
        <ele>10.4</ele>
        <time>2020-06-21T13:36:23Z</time>
      </trkpt>
      <trkpt lat="51.2003416179" lon="4.55015213355">
        <ele>6.4</ele>
        <time>2020-06-21T13:36:39Z</time>
      </trkpt>
      <trkpt lat="51.19979427983" lon="4.550199239828">
        <ele>10.6</ele>
        <time>2020-06-21T13:36:56Z</time>
      </trkpt>
      <trkpt lat="51.199789669785" lon="4.550228744116">
        <ele>11.4</ele>
        <time>2020-06-21T13:36:57Z</time>
      </trkpt>
      <trkpt lat="51.199809451069" lon="4.550307366338">
        <ele>12</ele>
        <time>2020-06-21T13:36:59Z</time>
      </trkpt>
      <trkpt lat="51.200165262724" lon="4.550958807606">
        <ele>19.2</ele>
        <time>2020-06-21T13:37:20Z</time>
      </trkpt>
      <trkpt lat="51.200505986959" lon="4.551656600781">
        <ele>18.8</ele>
        <time>2020-06-21T13:37:38Z</time>
      </trkpt>
      <trkpt lat="51.200670775113" lon="4.551990619496">
        <ele>18.6</ele>
        <time>2020-06-21T13:37:48Z</time>
      </trkpt>
      <trkpt lat="51.200695669356" lon="4.552056165954">
        <ele>18.6</ele>
        <time>2020-06-21T13:37:51Z</time>
      </trkpt>
      <trkpt lat="51.20099037696" lon="4.552817242474">
        <ele>21.8</ele>
        <time>2020-06-21T13:38:10Z</time>
      </trkpt>
      <trkpt lat="51.200992556254" lon="4.553132988647">
        <ele>18.6</ele>
        <time>2020-06-21T13:38:18Z</time>
      </trkpt>
      <trkpt lat="51.200843609891" lon="4.553179592011">
        <ele>17</ele>
        <time>2020-06-21T13:38:28Z</time>
      </trkpt>
      <trkpt lat="51.200807567721" lon="4.553324598881">
        <ele>25.2</ele>
        <time>2020-06-21T13:39:40Z</time>
      </trkpt>
      <trkpt lat="51.200803544409" lon="4.553339853939">
        <ele>25</ele>
        <time>2020-06-21T13:39:41Z</time>
      </trkpt>
      <trkpt lat="51.200290991224" lon="4.553578402813">
        <ele>19</ele>
        <time>2020-06-21T13:40:11Z</time>
      </trkpt>
      <trkpt lat="51.199783467179" lon="4.553926754577">
        <ele>17.2</ele>
        <time>2020-06-21T13:40:35Z</time>
      </trkpt>
      <trkpt lat="51.199269740528" lon="4.554210398073">
        <ele>7.8</ele>
        <time>2020-06-21T13:40:54Z</time>
      </trkpt>
      <trkpt lat="51.198769005822" lon="4.554587918849">
        <ele>17.4</ele>
        <time>2020-06-21T13:41:16Z</time>
      </trkpt>
      <trkpt lat="51.198263912528" lon="4.55493903664">
        <ele>9.8</ele>
        <time>2020-06-21T13:41:39Z</time>
      </trkpt>
      <trkpt lat="51.197751862257" lon="4.555193427305">
        <ele>27.4</ele>
        <time>2020-06-21T13:42:00Z</time>
      </trkpt>
      <trkpt lat="51.197202009617" lon="4.555258470849">
        <ele>40.6</ele>
        <time>2020-06-21T13:42:18Z</time>
      </trkpt>
      <trkpt lat="51.196660371239" lon="4.555444800486">
        <ele>34.6</ele>
        <time>2020-06-21T13:42:35Z</time>
      </trkpt>
      <trkpt lat="51.196141866905" lon="4.55579985777">
        <ele>13.4</ele>
        <time>2020-06-21T13:42:51Z</time>
      </trkpt>
      <trkpt lat="51.195716317842" lon="4.556333449524">
        <ele>10.6</ele>
        <time>2020-06-21T13:43:13Z</time>
      </trkpt>
      <trkpt lat="51.195606850228" lon="4.557157138837">
        <ele>13</ele>
        <time>2020-06-21T13:43:34Z</time>
      </trkpt>
      <trkpt lat="51.195544572711" lon="4.557993484819">
        <ele>16.4</ele>
        <time>2020-06-21T13:43:54Z</time>
      </trkpt>
      <trkpt lat="51.195378191996" lon="4.558205882165">
        <ele>13.8</ele>
        <time>2020-06-21T13:44:02Z</time>
      </trkpt>
      <trkpt lat="51.195259420473" lon="4.558341501307">
        <ele>14.4</ele>
        <time>2020-06-21T13:44:11Z</time>
      </trkpt>
      <trkpt lat="51.195242153759" lon="4.558275284297">
        <ele>16.2</ele>
        <time>2020-06-21T13:44:23Z</time>
      </trkpt>
      <trkpt lat="51.195247015261" lon="4.558348961198">
        <ele>17.6</ele>
        <time>2020-06-21T13:44:31Z</time>
      </trkpt>
      <trkpt lat="51.195412138691" lon="4.559195197822">
        <ele>24.4</ele>
        <time>2020-06-21T13:44:53Z</time>
      </trkpt>
      <trkpt lat="51.195615148309" lon="4.560009583226">
        <ele>25.2</ele>
        <time>2020-06-21T13:45:12Z</time>
      </trkpt>
      <trkpt lat="51.195803070507" lon="4.560820448232">
        <ele>25.8</ele>
        <time>2020-06-21T13:45:31Z</time>
      </trkpt>
      <trkpt lat="51.196288298698" lon="4.561214397532">
        <ele>26</ele>
        <time>2020-06-21T13:45:51Z</time>
      </trkpt>
      <trkpt lat="51.196725330964" lon="4.561729716744">
        <ele>22.2</ele>
        <time>2020-06-21T13:46:10Z</time>
      </trkpt>
      <trkpt lat="51.197123890309" lon="4.562348803878">
        <ele>14.6</ele>
        <time>2020-06-21T13:46:29Z</time>
      </trkpt>
      <trkpt lat="51.197370318169" lon="4.563110048036">
        <ele>14</ele>
        <time>2020-06-21T13:46:57Z</time>
      </trkpt>
      <trkpt lat="51.197694781518" lon="4.563843464286">
        <ele>18.4</ele>
        <time>2020-06-21T13:47:18Z</time>
      </trkpt>
      <trkpt lat="51.198007677845" lon="4.564580317115">
        <ele>18.2</ele>
        <time>2020-06-21T13:47:34Z</time>
      </trkpt>
      <trkpt lat="51.198339433447" lon="4.565303842723">
        <ele>18.4</ele>
        <time>2020-06-21T13:47:52Z</time>
      </trkpt>
      <trkpt lat="51.198630285377" lon="4.566035331136">
        <ele>17.4</ele>
        <time>2020-06-21T13:48:12Z</time>
      </trkpt>
      <trkpt lat="51.198952401794" lon="4.566748630826">
        <ele>18.8</ele>
        <time>2020-06-21T13:48:30Z</time>
      </trkpt>
      <trkpt lat="51.199402593643" lon="4.567252215378">
        <ele>19</ele>
        <time>2020-06-21T13:48:50Z</time>
      </trkpt>
      <trkpt lat="51.199917326122" lon="4.567511970459">
        <ele>17.2</ele>
        <time>2020-06-21T13:49:10Z</time>
      </trkpt>
      <trkpt lat="51.200415797715" lon="4.567963754869">
        <ele>16.8</ele>
        <time>2020-06-21T13:49:28Z</time>
      </trkpt>
      <trkpt lat="51.200881663717" lon="4.568421909523">
        <ele>20</ele>
        <time>2020-06-21T13:49:44Z</time>
      </trkpt>
      <trkpt lat="51.201340824199" lon="4.568952483793">
        <ele>18.8</ele>
        <time>2020-06-21T13:50:02Z</time>
      </trkpt>
      <trkpt lat="51.201642237323" lon="4.569662179266">
        <ele>17.2</ele>
        <time>2020-06-21T13:50:24Z</time>
      </trkpt>
      <trkpt lat="51.20202051247" lon="4.570319152588">
        <ele>15</ele>
        <time>2020-06-21T13:50:43Z</time>
      </trkpt>
      <trkpt lat="51.202321674137" lon="4.571046030956">
        <ele>15.2</ele>
        <time>2020-06-21T13:51:04Z</time>
      </trkpt>
      <trkpt lat="51.202407253336" lon="4.571851531546">
        <ele>7.4</ele>
        <time>2020-06-21T13:51:26Z</time>
      </trkpt>
      <trkpt lat="51.20219150323" lon="4.572650913349">
        <ele>8</ele>
        <time>2020-06-21T13:51:45Z</time>
      </trkpt>
      <trkpt lat="51.202022943221" lon="4.573393046775">
        <ele>16.8</ele>
        <time>2020-06-21T13:52:05Z</time>
      </trkpt>
      <trkpt lat="51.201885396242" lon="4.573611646727">
        <ele>7.2</ele>
        <time>2020-06-21T13:57:25Z</time>
      </trkpt>
      <trkpt lat="51.201676686932" lon="4.574436844782">
        <ele>7</ele>
        <time>2020-06-21T13:57:54Z</time>
      </trkpt>
      <trkpt lat="51.201400168051" lon="4.575186857194">
        <ele>4.8</ele>
        <time>2020-06-21T13:58:14Z</time>
      </trkpt>
      <trkpt lat="51.201064724413" lon="4.575864198533">
        <ele>2.6</ele>
        <time>2020-06-21T13:58:33Z</time>
      </trkpt>
      <trkpt lat="51.200709499491" lon="4.5765593095">
        <ele>5.8</ele>
        <time>2020-06-21T13:58:54Z</time>
      </trkpt>
      <trkpt lat="51.200347066135" lon="4.577205805447">
        <ele>7.6</ele>
        <time>2020-06-21T13:59:19Z</time>
      </trkpt>
      <trkpt lat="51.199944902573" lon="4.577807290591">
        <ele>7</ele>
        <time>2020-06-21T13:59:42Z</time>
      </trkpt>
      <trkpt lat="51.199521197528" lon="4.578404752423">
        <ele>7.2</ele>
        <time>2020-06-21T14:00:03Z</time>
      </trkpt>
      <trkpt lat="51.199137222689" lon="4.579013362182">
        <ele>4.8</ele>
        <time>2020-06-21T14:00:20Z</time>
      </trkpt>
      <trkpt lat="51.19892088585" lon="4.579220898026">
        <ele>4.4</ele>
        <time>2020-06-21T14:00:28Z</time>
      </trkpt>
      <trkpt lat="51.198458875522" lon="4.578761821363">
        <ele>6.4</ele>
        <time>2020-06-21T14:00:47Z</time>
      </trkpt>
      <trkpt lat="51.19801480246" lon="4.578215237664">
        <ele>5</ele>
        <time>2020-06-21T14:01:07Z</time>
      </trkpt>
      <trkpt lat="51.197563437145" lon="4.577744342522">
        <ele>6.2</ele>
        <time>2020-06-21T14:01:29Z</time>
      </trkpt>
      <trkpt lat="51.197248445343" lon="4.577011345367">
        <ele>9</ele>
        <time>2020-06-21T14:01:52Z</time>
      </trkpt>
      <trkpt lat="51.197128165078" lon="4.576186063493">
        <ele>10.4</ele>
        <time>2020-06-21T14:02:13Z</time>
      </trkpt>
      <trkpt lat="51.197114921676" lon="4.575311160771">
        <ele>11.6</ele>
        <time>2020-06-21T14:02:32Z</time>
      </trkpt>
      <trkpt lat="51.19708524975" lon="4.574437682972">
        <ele>11.6</ele>
        <time>2020-06-21T14:02:50Z</time>
      </trkpt>
      <trkpt lat="51.19705423672" lon="4.573568396123">
        <ele>11.4</ele>
        <time>2020-06-21T14:03:08Z</time>
      </trkpt>
      <trkpt lat="51.197044094621" lon="4.572672873927">
        <ele>10.6</ele>
        <time>2020-06-21T14:03:27Z</time>
      </trkpt>
      <trkpt lat="51.196888694195" lon="4.571846083311">
        <ele>14.8</ele>
        <time>2020-06-21T14:03:46Z</time>
      </trkpt>
      <trkpt lat="51.19657563023" lon="4.571153235457">
        <ele>21</ele>
        <time>2020-06-21T14:04:05Z</time>
      </trkpt>
      <trkpt lat="51.196201462214" lon="4.57049584304">
        <ele>28.8</ele>
        <time>2020-06-21T14:04:28Z</time>
      </trkpt>
      <trkpt lat="51.195858391047" lon="4.569797127856">
        <ele>22.4</ele>
        <time>2020-06-21T14:04:49Z</time>
      </trkpt>
      <trkpt lat="51.195497634071" lon="4.569775921649">
        <ele>12.6</ele>
        <time>2020-06-21T14:05:09Z</time>
      </trkpt>
      <trkpt lat="51.195309376597" lon="4.568971510706">
        <ele>12.8</ele>
        <time>2020-06-21T14:05:32Z</time>
      </trkpt>
      <trkpt lat="51.195112066671" lon="4.568173050912">
        <ele>12.2</ele>
        <time>2020-06-21T14:05:59Z</time>
      </trkpt>
      <trkpt lat="51.194620719693" lon="4.568237423904">
        <ele>9.8</ele>
        <time>2020-06-21T14:06:22Z</time>
      </trkpt>
      <trkpt lat="51.194118392426" lon="4.56855375681">
        <ele>9.8</ele>
        <time>2020-06-21T14:06:44Z</time>
      </trkpt>
      <trkpt lat="51.193629895294" lon="4.568967906489">
        <ele>7</ele>
        <time>2020-06-21T14:07:05Z</time>
      </trkpt>
      <trkpt lat="51.193129998778" lon="4.569359592676">
        <ele>4.8</ele>
        <time>2020-06-21T14:07:26Z</time>
      </trkpt>
      <trkpt lat="51.192980130406" lon="4.569384738376">
        <ele>4.4</ele>
        <time>2020-06-21T14:07:32Z</time>
      </trkpt>
      <trkpt lat="51.19278282048" lon="4.568588290238">
        <ele>9.2</ele>
        <time>2020-06-21T14:07:50Z</time>
      </trkpt>
      <trkpt lat="51.192620546896" lon="4.56773735975">
        <ele>10</ele>
        <time>2020-06-21T14:08:11Z</time>
      </trkpt>
      <trkpt lat="51.192483921926" lon="4.566895481714">
        <ele>9.2</ele>
        <time>2020-06-21T14:08:32Z</time>
      </trkpt>
      <trkpt lat="51.19210304839" lon="4.566273209458">
        <ele>8.4</ele>
        <time>2020-06-21T14:08:50Z</time>
      </trkpt>
      <trkpt lat="51.192085949314" lon="4.566237921659">
        <ele>8.4</ele>
        <time>2020-06-21T14:08:51Z</time>
      </trkpt>
      <trkpt lat="51.191863577507" lon="4.565548929479">
        <ele>9.2</ele>
        <time>2020-06-21T14:09:16Z</time>
      </trkpt>
      <trkpt lat="51.192398342727" lon="4.56534516549">
        <ele>9.8</ele>
        <time>2020-06-21T14:09:36Z</time>
      </trkpt>
      <trkpt lat="51.192918104346" lon="4.565032688258">
        <ele>9.8</ele>
        <time>2020-06-21T14:09:54Z</time>
      </trkpt>
      <trkpt lat="51.193436105766" lon="4.564701519389">
        <ele>7.4</ele>
        <time>2020-06-21T14:10:12Z</time>
      </trkpt>
      <trkpt lat="51.193261510789" lon="4.563969025148">
        <ele>8.4</ele>
        <time>2020-06-21T14:10:34Z</time>
      </trkpt>
      <trkpt lat="51.193197305435" lon="4.563551941804">
        <ele>9.2</ele>
        <time>2020-06-21T14:10:47Z</time>
      </trkpt>
      <trkpt lat="51.193039725715" lon="4.562725486464">
        <ele>11.2</ele>
        <time>2020-06-21T14:11:05Z</time>
      </trkpt>
      <trkpt lat="51.193034193661" lon="4.562615432117">
        <ele>11.6</ele>
        <time>2020-06-21T14:11:08Z</time>
      </trkpt>
      <trkpt lat="51.193039055163" lon="4.562520297552">
        <ele>12.2</ele>
        <time>2020-06-21T14:11:11Z</time>
      </trkpt>
      <trkpt lat="51.192797740262" lon="4.561770536597">
        <ele>11.6</ele>
        <time>2020-06-21T14:11:31Z</time>
      </trkpt>
      <trkpt lat="51.192598753956" lon="4.560930167303">
        <ele>12.4</ele>
        <time>2020-06-21T14:11:51Z</time>
      </trkpt>
      <trkpt lat="51.192387446257" lon="4.560119637573">
        <ele>15</ele>
        <time>2020-06-21T14:12:11Z</time>
      </trkpt>
      <trkpt lat="51.192832106052" lon="4.55975443819">
        <ele>18.8</ele>
        <time>2020-06-21T14:12:33Z</time>
      </trkpt>
      <trkpt lat="51.193342312305" lon="4.559474063635">
        <ele>9.6</ele>
        <time>2020-06-21T14:12:54Z</time>
      </trkpt>
      <trkpt lat="51.193604414318" lon="4.559321345417">
        <ele>10.8</ele>
        <time>2020-06-21T14:13:03Z</time>
      </trkpt>
      <trkpt lat="51.193738524718" lon="4.559224869748">
        <ele>19.2</ele>
        <time>2020-06-21T14:14:31Z</time>
      </trkpt>
      <trkpt lat="51.193846818866" lon="4.559158736557">
        <ele>12.6</ele>
        <time>2020-06-21T14:14:42Z</time>
      </trkpt>
      <trkpt lat="51.194373286005" lon="4.55885338394">
        <ele>7.6</ele>
        <time>2020-06-21T14:15:07Z</time>
      </trkpt>
      <trkpt lat="51.194895226918" lon="4.558578960534">
        <ele>5.4</ele>
        <time>2020-06-21T14:15:26Z</time>
      </trkpt>
      <trkpt lat="51.195357488703" lon="4.558205798346">
        <ele>6.6</ele>
        <time>2020-06-21T14:15:43Z</time>
      </trkpt>
      <trkpt lat="51.195577262121" lon="4.557470202802">
        <ele>10.8</ele>
        <time>2020-06-21T14:16:03Z</time>
      </trkpt>
      <trkpt lat="51.195587152763" lon="4.557045994843">
        <ele>16.4</ele>
        <time>2020-06-21T14:16:13Z</time>
      </trkpt>
      <trkpt lat="51.195590337885" lon="4.556883888897">
        <ele>14.4</ele>
        <time>2020-06-21T14:20:42Z</time>
      </trkpt>
      <trkpt lat="51.195594193559" lon="4.556814738222">
        <ele>11.2</ele>
        <time>2020-06-21T14:21:07Z</time>
      </trkpt>
      <trkpt lat="51.195893511208" lon="4.556095235926">
        <ele>6.4</ele>
        <time>2020-06-21T14:21:39Z</time>
      </trkpt>
      <trkpt lat="51.196380499598" lon="4.555640685489">
        <ele>8.8</ele>
        <time>2020-06-21T14:22:01Z</time>
      </trkpt>
      <trkpt lat="51.19688659872" lon="4.555320832185">
        <ele>10</ele>
        <time>2020-06-21T14:22:25Z</time>
      </trkpt>
      <trkpt lat="51.197457825205" lon="4.555248161112">
        <ele>8.2</ele>
        <time>2020-06-21T14:22:47Z</time>
      </trkpt>
      <trkpt lat="51.19800558237" lon="4.555158893877">
        <ele>15.6</ele>
        <time>2020-06-21T14:23:04Z</time>
      </trkpt>
      <trkpt lat="51.198489134181" lon="4.554727226027">
        <ele>19.8</ele>
        <time>2020-06-21T14:23:25Z</time>
      </trkpt>
      <trkpt lat="51.199011158913" lon="4.554387591439">
        <ele>20.4</ele>
        <time>2020-06-21T14:23:43Z</time>
      </trkpt>
      <trkpt lat="51.199528825057" lon="4.554034461992">
        <ele>21.4</ele>
        <time>2020-06-21T14:24:01Z</time>
      </trkpt>
      <trkpt lat="51.200046491201" lon="4.553709831005">
        <ele>24.6</ele>
        <time>2020-06-21T14:24:20Z</time>
      </trkpt>
      <trkpt lat="51.200546722993" lon="4.553340859767">
        <ele>6.6</ele>
        <time>2020-06-21T14:24:38Z</time>
      </trkpt>
      <trkpt lat="51.20106078492" lon="4.553013881848">
        <ele>6.2</ele>
        <time>2020-06-21T14:25:00Z</time>
      </trkpt>
      <trkpt lat="51.201579959806" lon="4.552664272799">
        <ele>16.2</ele>
        <time>2020-06-21T14:25:16Z</time>
      </trkpt>
      <trkpt lat="51.202076755019" lon="4.552340060907">
        <ele>5</ele>
        <time>2020-06-21T14:25:34Z</time>
      </trkpt>
      <trkpt lat="51.202555780604" lon="4.552789833661">
        <ele>3.4</ele>
        <time>2020-06-21T14:25:55Z</time>
      </trkpt>
      <trkpt lat="51.203120636845" lon="4.55273459694">
        <ele>3.8</ele>
        <time>2020-06-21T14:26:12Z</time>
      </trkpt>
      <trkpt lat="51.203669064562" lon="4.552551703882">
        <ele>4.4</ele>
        <time>2020-06-21T14:26:30Z</time>
      </trkpt>
      <trkpt lat="51.204208439827" lon="4.55236998429">
        <ele>3</ele>
        <time>2020-06-21T14:26:46Z</time>
      </trkpt>
      <trkpt lat="51.204742450676" lon="4.552166052663">
        <ele>2.4</ele>
        <time>2020-06-21T14:27:02Z</time>
      </trkpt>
      <trkpt lat="51.205285346339" lon="4.55216378955">
        <ele>3.6</ele>
        <time>2020-06-21T14:27:20Z</time>
      </trkpt>
      <trkpt lat="51.205832349133" lon="4.552372415041">
        <ele>0</ele>
        <time>2020-06-21T14:27:37Z</time>
      </trkpt>
      <trkpt lat="51.206210708099" lon="4.552333858301">
        <ele>2.8</ele>
        <time>2020-06-21T14:27:51Z</time>
      </trkpt>
      <trkpt lat="51.206232836315" lon="4.55237668981">
        <ele>3.2</ele>
        <time>2020-06-21T14:27:53Z</time>
      </trkpt>
      <trkpt lat="51.206234764152" lon="4.552480960646">
        <ele>3.8</ele>
        <time>2020-06-21T14:27:57Z</time>
      </trkpt>
      <trkpt lat="51.206741869102" lon="4.552744487582">
        <ele>3.4</ele>
        <time>2020-06-21T14:28:24Z</time>
      </trkpt>
      <trkpt lat="51.207266576042" lon="4.552961075878">
        <ele>2.6</ele>
        <time>2020-06-21T14:28:48Z</time>
      </trkpt>
      <trkpt lat="51.207818188881" lon="4.553132988647">
        <ele>5.4</ele>
        <time>2020-06-21T14:29:09Z</time>
      </trkpt>
      <trkpt lat="51.208285647444" lon="4.553237259483">
        <ele>6.6</ele>
        <time>2020-06-21T14:29:22Z</time>
      </trkpt>
      <trkpt lat="51.208791830385" lon="4.552838364862">
        <ele>9.4</ele>
        <time>2020-06-21T14:29:35Z</time>
      </trkpt>
      <trkpt lat="51.209278315861" lon="4.552340480002">
        <ele>5.8</ele>
        <time>2020-06-21T14:29:45Z</time>
      </trkpt>
      <trkpt lat="51.209709899892" lon="4.551970502936">
        <ele>7</ele>
        <time>2020-06-21T14:29:52Z</time>
      </trkpt>
      <trkpt lat="51.209808303398" lon="4.551834716156">
        <ele>6.8</ele>
        <time>2020-06-21T14:29:54Z</time>
      </trkpt>
      <trkpt lat="51.209886590344" lon="4.551679734825">
        <ele>6.4</ele>
        <time>2020-06-21T14:29:56Z</time>
      </trkpt>
      <trkpt lat="51.210098065681" lon="4.550948581688">
        <ele>6</ele>
        <time>2020-06-21T14:30:06Z</time>
      </trkpt>
      <trkpt lat="51.210259417256" lon="4.550133777189">
        <ele>5.6</ele>
        <time>2020-06-21T14:30:24Z</time>
      </trkpt>
      <trkpt lat="51.21022639257" lon="4.549335065938">
        <ele>5.4</ele>
        <time>2020-06-21T14:30:43Z</time>
      </trkpt>
      <trkpt lat="51.210460079942" lon="4.548529732986">
        <ele>6.2</ele>
        <time>2020-06-21T14:31:01Z</time>
      </trkpt>
      <trkpt lat="51.210298560729" lon="4.547882482668">
        <ele>8.4</ele>
        <time>2020-06-21T14:31:19Z</time>
      </trkpt>
      <trkpt lat="51.210113656015" lon="4.547930678593">
        <ele>8</ele>
        <time>2020-06-21T14:31:25Z</time>
      </trkpt>
      <trkpt lat="51.210105274115" lon="4.547164572933">
        <ele>6.6</ele>
        <time>2020-06-21T14:31:43Z</time>
      </trkpt>
      <trkpt lat="51.210117595508" lon="4.546725529011">
        <ele>8.4</ele>
        <time>2020-06-21T14:31:58Z</time>
      </trkpt>
      <trkpt lat="51.210307277905" lon="4.546986876653">
        <ele>15.8</ele>
        <time>2020-06-21T14:53:59Z</time>
      </trkpt>
      <trkpt lat="51.210585054071" lon="4.546249940005">
        <ele>12.2</ele>
        <time>2020-06-21T14:54:25Z</time>
      </trkpt>
      <trkpt lat="51.210655713488" lon="4.546117673623">
        <ele>12.2</ele>
        <time>2020-06-21T14:54:30Z</time>
      </trkpt>
      <trkpt lat="51.210766606025" lon="4.546202246994">
        <ele>11.8</ele>
        <time>2020-06-21T14:54:35Z</time>
      </trkpt>
      <trkpt lat="51.210583629148" lon="4.546997102571">
        <ele>9</ele>
        <time>2020-06-21T14:55:02Z</time>
      </trkpt>
      <trkpt lat="51.210580695483" lon="4.547077904087">
        <ele>9.4</ele>
        <time>2020-06-21T14:55:07Z</time>
      </trkpt>
      <trkpt lat="51.210548089892" lon="4.547271358339">
        <ele>9.4</ele>
        <time>2020-06-21T14:55:22Z</time>
      </trkpt>
      <trkpt lat="51.210465695815" lon="4.548078786766">
        <ele>7.8</ele>
        <time>2020-06-21T14:56:00Z</time>
      </trkpt>
      <trkpt lat="51.210562925855" lon="4.548858471104">
        <ele>5</ele>
        <time>2020-06-21T14:56:19Z</time>
      </trkpt>
      <trkpt lat="51.210595531446" lon="4.548901805527">
        <ele>4.6</ele>
        <time>2020-06-21T14:56:21Z</time>
      </trkpt>
      <trkpt lat="51.21063291472" lon="4.548880264044">
        <ele>3.4</ele>
        <time>2020-06-21T14:56:23Z</time>
      </trkpt>
      <trkpt lat="51.210844892971" lon="4.548046348813">
        <ele>3</ele>
        <time>2020-06-21T14:56:42Z</time>
      </trkpt>
      <trkpt lat="51.21105955343" lon="4.547220731663">
        <ele>2.4</ele>
        <time>2020-06-21T14:57:00Z</time>
      </trkpt>
      <trkpt lat="51.211272034595" lon="4.546426379">
        <ele>2.8</ele>
        <time>2020-06-21T14:57:17Z</time>
      </trkpt>
      <trkpt lat="51.211287624929" lon="4.545975181323">
        <ele>3.2</ele>
        <time>2020-06-21T14:57:39Z</time>
      </trkpt>
      <trkpt lat="51.21110565388" lon="4.545250566068">
        <ele>2.6</ele>
        <time>2020-06-21T14:58:01Z</time>
      </trkpt>
      <trkpt lat="51.211073886479" lon="4.545062140956">
        <ele>2.2</ele>
        <time>2020-06-21T14:58:09Z</time>
      </trkpt>
      <trkpt lat="51.211003646157" lon="4.544800122762">
        <ele>4.2</ele>
        <time>2020-06-21T14:58:17Z</time>
      </trkpt>
      <trkpt lat="51.210913289275" lon="4.544554952187">
        <ele>4.2</ele>
        <time>2020-06-21T14:58:25Z</time>
      </trkpt>
      <trkpt lat="51.210928544333" lon="4.544468953893">
        <ele>4</ele>
        <time>2020-06-21T14:58:28Z</time>
      </trkpt>
      <trkpt lat="51.21069913173" lon="4.543676696705">
        <ele>5.6</ele>
        <time>2020-06-21T14:58:53Z</time>
      </trkpt>
      <trkpt lat="51.210682535568" lon="4.54367208666">
        <ele>5.6</ele>
        <time>2020-06-21T14:58:54Z</time>
      </trkpt>
      <trkpt lat="51.210567284443" lon="4.543608887134">
        <ele>5</ele>
        <time>2020-06-21T14:59:02Z</time>
      </trkpt>
      <trkpt lat="51.210512382998" lon="4.543576700638">
        <ele>5.2</ele>
        <time>2020-06-21T14:59:06Z</time>
      </trkpt>
      <trkpt lat="51.210471814602" lon="4.543582987063">
        <ele>5.4</ele>
        <time>2020-06-21T14:59:09Z</time>
      </trkpt>
      <trkpt lat="51.209964122919" lon="4.543228767969">
        <ele>5.6</ele>
        <time>2020-06-21T14:59:31Z</time>
      </trkpt>
      <trkpt lat="51.209785672268" lon="4.543033050604">
        <ele>4.4</ele>
        <time>2020-06-21T14:59:37Z</time>
      </trkpt>
      <trkpt lat="51.209554499466" lon="4.542178348261">
        <ele>0.8</ele>
        <time>2020-06-21T14:59:49Z</time>
      </trkpt>
      <trkpt lat="51.209505381532" lon="4.542016242315">
        <ele>0.2</ele>
        <time>2020-06-21T14:59:51Z</time>
      </trkpt>
      <trkpt lat="51.209468082077" lon="4.541838210759">
        <ele>0</ele>
        <time>2020-06-21T14:59:53Z</time>
      </trkpt>
      <trkpt lat="51.209263898993" lon="4.54101837712">
        <ele>0</ele>
        <time>2020-06-21T15:00:02Z</time>
      </trkpt>
      <trkpt lat="51.209207488806" lon="4.54083146075">
        <ele>0</ele>
        <time>2020-06-21T15:00:04Z</time>
      </trkpt>
      <trkpt lat="51.209006071749" lon="4.540371126802">
        <ele>0</ele>
        <time>2020-06-21T15:00:10Z</time>
      </trkpt>
      <trkpt lat="51.208808007452" lon="4.54010977916">
        <ele>0</ele>
        <time>2020-06-21T15:00:15Z</time>
      </trkpt>
      <trkpt lat="51.208695773811" lon="4.539874583046">
        <ele>0</ele>
        <time>2020-06-21T15:00:19Z</time>
      </trkpt>
      <trkpt lat="51.208427050097" lon="4.539115937277">
        <ele>0</ele>
        <time>2020-06-21T15:00:35Z</time>
      </trkpt>
      <trkpt lat="51.208085571491" lon="4.538190491698">
        <ele>0</ele>
        <time>2020-06-21T15:00:58Z</time>
      </trkpt>
      <trkpt lat="51.208089259527" lon="4.537396055216">
        <ele>0</ele>
        <time>2020-06-21T15:01:17Z</time>
      </trkpt>
      <trkpt lat="51.208128654457" lon="4.537146106958">
        <ele>0</ele>
        <time>2020-06-21T15:01:26Z</time>
      </trkpt>
      <trkpt lat="51.208127648629" lon="4.537068574383">
        <ele>0</ele>
        <time>2020-06-21T15:01:29Z</time>
      </trkpt>
      <trkpt lat="51.208163187885" lon="4.536996825319">
        <ele>0</ele>
        <time>2020-06-21T15:01:32Z</time>
      </trkpt>
      <trkpt lat="51.20830190833" lon="4.53614346408">
        <ele>2.6</ele>
        <time>2020-06-21T15:01:53Z</time>
      </trkpt>
      <trkpt lat="51.208454039815" lon="4.535315499998">
        <ele>1.4</ele>
        <time>2020-06-21T15:02:12Z</time>
      </trkpt>
      <trkpt lat="51.208585132731" lon="4.534462222578">
        <ele>0.6</ele>
        <time>2020-06-21T15:02:32Z</time>
      </trkpt>
      <trkpt lat="51.208676243984" lon="4.53360291019">
        <ele>0</ele>
        <time>2020-06-21T15:02:50Z</time>
      </trkpt>
      <trkpt lat="51.208796021335" lon="4.532761535068">
        <ele>0</ele>
        <time>2020-06-21T15:03:11Z</time>
      </trkpt>
      <trkpt lat="51.208855281368" lon="4.531896690626">
        <ele>0</ele>
        <time>2020-06-21T15:03:29Z</time>
      </trkpt>
      <trkpt lat="51.208580271229" lon="4.531155730666">
        <ele>0.4</ele>
        <time>2020-06-21T15:03:46Z</time>
      </trkpt>
      <trkpt lat="51.208285312168" lon="4.530436647465">
        <ele>0.6</ele>
        <time>2020-06-21T15:04:03Z</time>
      </trkpt>
      <trkpt lat="51.208176096011" lon="4.530170605959">
        <ele>0</ele>
        <time>2020-06-21T15:04:11Z</time>
      </trkpt>
      <trkpt lat="51.2081870763" lon="4.530105478596">
        <ele>0</ele>
        <time>2020-06-21T15:04:13Z</time>
      </trkpt>
      <trkpt lat="51.20869669582" lon="4.52978746931">
        <ele>0.6</ele>
        <time>2020-06-21T15:04:30Z</time>
      </trkpt>
      <trkpt lat="51.209237160732" lon="4.529569456091">
        <ele>0.4</ele>
        <time>2020-06-21T15:04:47Z</time>
      </trkpt>
      <trkpt lat="51.209773853789" lon="4.529274329392">
        <ele>1.4</ele>
        <time>2020-06-21T15:05:05Z</time>
      </trkpt>
      <trkpt lat="51.210274504676" lon="4.528906783077">
        <ele>1</ele>
        <time>2020-06-21T15:05:24Z</time>
      </trkpt>
      <trkpt lat="51.210571056298" lon="4.52848156929">
        <ele>1.6</ele>
        <time>2020-06-21T15:05:41Z</time>
      </trkpt>
      <trkpt lat="51.210677087333" lon="4.52838685382">
        <ele>0.8</ele>
        <time>2020-06-21T15:05:58Z</time>
      </trkpt>
      <trkpt lat="51.210921000623" lon="4.528105138161">
        <ele>1.2</ele>
        <time>2020-06-21T15:06:13Z</time>
      </trkpt>
      <trkpt lat="51.210971124385" lon="4.528139084856">
        <ele>1.2</ele>
        <time>2020-06-21T15:06:16Z</time>
      </trkpt>
      <trkpt lat="51.211030719694" lon="4.528038334418">
        <ele>1.2</ele>
        <time>2020-06-21T15:06:21Z</time>
      </trkpt>
      <trkpt lat="51.211087884252" lon="4.528035819848">
        <ele>1.4</ele>
        <time>2020-06-21T15:06:24Z</time>
      </trkpt>
      <trkpt lat="51.211111437391" lon="4.528001621696">
        <ele>1.2</ele>
        <time>2020-06-21T15:06:26Z</time>
      </trkpt>
      <trkpt lat="51.21112325587" lon="4.527957784359">
        <ele>1.4</ele>
        <time>2020-06-21T15:06:29Z</time>
      </trkpt>
      <trkpt lat="51.212155319217" lon="4.527529469269">
        <ele>6.6</ele>
        <time>2020-06-21T15:07:54Z</time>
      </trkpt>
      <trkpt lat="51.212738448" lon="4.527556458987">
        <ele>5.6</ele>
        <time>2020-06-21T15:08:09Z</time>
      </trkpt>
      <trkpt lat="51.213320068041" lon="4.527579090117">
        <ele>2.2</ele>
        <time>2020-06-21T15:08:19Z</time>
      </trkpt>
      <trkpt lat="51.213888947594" lon="4.527615299925">
        <ele>0</ele>
        <time>2020-06-21T15:08:27Z</time>
      </trkpt>
      <trkpt lat="51.214324806394" lon="4.527628040413">
        <ele>0</ele>
        <time>2020-06-21T15:08:34Z</time>
      </trkpt>
      <trkpt lat="51.214413486896" lon="4.527704734798">
        <ele>0</ele>
        <time>2020-06-21T15:08:36Z</time>
      </trkpt>
      <trkpt lat="51.214492444394" lon="4.527803389761">
        <ele>0</ele>
        <time>2020-06-21T15:08:38Z</time>
      </trkpt>
      <trkpt lat="51.214585399665" lon="4.527826188529">
        <ele>0</ele>
        <time>2020-06-21T15:08:40Z</time>
      </trkpt>
      <trkpt lat="51.21467215233" lon="4.527747985402">
        <ele>0</ele>
        <time>2020-06-21T15:08:42Z</time>
      </trkpt>
      <trkpt lat="51.21470903269" lon="4.527611863346">
        <ele>0</ele>
        <time>2020-06-21T15:08:44Z</time>
      </trkpt>
      <trkpt lat="51.214497305896" lon="4.526827401325">
        <ele>0</ele>
        <time>2020-06-21T15:08:58Z</time>
      </trkpt>
      <trkpt lat="51.214321872729" lon="4.525965909643">
        <ele>0</ele>
        <time>2020-06-21T15:09:18Z</time>
      </trkpt>
      <trkpt lat="51.21415666548" lon="4.525119756838">
        <ele>0.4</ele>
        <time>2020-06-21T15:09:36Z</time>
      </trkpt>
      <trkpt lat="51.213990033308" lon="4.524291206023">
        <ele>1.8</ele>
        <time>2020-06-21T15:09:54Z</time>
      </trkpt>
      <trkpt lat="51.213841422221" lon="4.523454440946">
        <ele>1.6</ele>
        <time>2020-06-21T15:10:12Z</time>
      </trkpt>
      <trkpt lat="51.213751735891" lon="4.522581466061">
        <ele>1.4</ele>
        <time>2020-06-21T15:10:32Z</time>
      </trkpt>
      <trkpt lat="51.213718795024" lon="4.521688123159">
        <ele>0</ele>
        <time>2020-06-21T15:10:51Z</time>
      </trkpt>
      <trkpt lat="51.213700857758" lon="4.520825122735">
        <ele>0</ele>
        <time>2020-06-21T15:11:11Z</time>
      </trkpt>
      <trkpt lat="51.213680657379" lon="4.519918955526">
        <ele>0</ele>
        <time>2020-06-21T15:11:29Z</time>
      </trkpt>
      <trkpt lat="51.213666156692" lon="4.519604801914">
        <ele>0</ele>
        <time>2020-06-21T15:11:35Z</time>
      </trkpt>
      <trkpt lat="51.213641765363" lon="4.518726546432">
        <ele>0</ele>
        <time>2020-06-21T15:11:53Z</time>
      </trkpt>
      <trkpt lat="51.21366380976" lon="4.517837813575">
        <ele>0</ele>
        <time>2020-06-21T15:12:10Z</time>
      </trkpt>
      <trkpt lat="51.213750059511" lon="4.516975818979">
        <ele>0</ele>
        <time>2020-06-21T15:12:26Z</time>
      </trkpt>
      <trkpt lat="51.213849971759" lon="4.516105442483">
        <ele>0</ele>
        <time>2020-06-21T15:12:42Z</time>
      </trkpt>
      <trkpt lat="51.213953069129" lon="4.515227522277">
        <ele>0</ele>
        <time>2020-06-21T15:12:57Z</time>
      </trkpt>
      <trkpt lat="51.213936389148" lon="4.514346416949">
        <ele>0</ele>
        <time>2020-06-21T15:13:13Z</time>
      </trkpt>
      <trkpt lat="51.213761458895" lon="4.513481488688">
        <ele>0</ele>
        <time>2020-06-21T15:13:32Z</time>
      </trkpt>
      <trkpt lat="51.213489550059" lon="4.512725189851">
        <ele>0</ele>
        <time>2020-06-21T15:13:50Z</time>
      </trkpt>
      <trkpt lat="51.213489130964" lon="4.512692248984">
        <ele>0</ele>
        <time>2020-06-21T15:13:51Z</time>
      </trkpt>
      <trkpt lat="51.214041162898" lon="4.512486138063">
        <ele>0</ele>
        <time>2020-06-21T15:14:10Z</time>
      </trkpt>
      <trkpt lat="51.214591769909" lon="4.512296288028">
        <ele>0</ele>
        <time>2020-06-21T15:14:25Z</time>
      </trkpt>
      <trkpt lat="51.215138437427" lon="4.512096295894">
        <ele>0</ele>
        <time>2020-06-21T15:14:41Z</time>
      </trkpt>
      <trkpt lat="51.215686529868" lon="4.512081962845">
        <ele>0</ele>
        <time>2020-06-21T15:14:56Z</time>
      </trkpt>
      <trkpt lat="51.216092800561" lon="4.51146379772">
        <ele>0</ele>
        <time>2020-06-21T15:15:13Z</time>
      </trkpt>
      <trkpt lat="51.216377952799" lon="4.510688723427">
        <ele>0</ele>
        <time>2020-06-21T15:15:30Z</time>
      </trkpt>
      <trkpt lat="51.216740050879" lon="4.510035857236">
        <ele>0</ele>
        <time>2020-06-21T15:15:49Z</time>
      </trkpt>
      <trkpt lat="51.217224943794" lon="4.509968215303">
        <ele>0</ele>
        <time>2020-06-21T15:16:08Z</time>
      </trkpt>
      <trkpt lat="51.217632304134" lon="4.510530137879">
        <ele>0</ele>
        <time>2020-06-21T15:16:26Z</time>
      </trkpt>
      <trkpt lat="51.218106803493" lon="4.510324278415">
        <ele>0</ele>
        <time>2020-06-21T15:16:46Z</time>
      </trkpt>
      <trkpt lat="51.218570406382" lon="4.509796386353">
        <ele>0</ele>
        <time>2020-06-21T15:17:02Z</time>
      </trkpt>
      <trkpt lat="51.219000649309" lon="4.509253406871">
        <ele>0</ele>
        <time>2020-06-21T15:17:25Z</time>
      </trkpt>
      <trkpt lat="51.21951521415" lon="4.509205210946">
        <ele>0</ele>
        <time>2020-06-21T15:17:47Z</time>
      </trkpt>
      <trkpt lat="51.220031455371" lon="4.50894168401">
        <ele>6.8</ele>
        <time>2020-06-21T15:18:10Z</time>
      </trkpt>
      <trkpt lat="51.220575859776" lon="4.508734818718">
        <ele>1.8</ele>
        <time>2020-06-21T15:18:27Z</time>
      </trkpt>
      <trkpt lat="51.220643250252" lon="4.508291667665">
        <ele>0</ele>
        <time>2020-06-21T15:18:40Z</time>
      </trkpt>
      <trkpt lat="51.220653559989" lon="4.508313292967">
        <ele>0</ele>
        <time>2020-06-21T15:18:43Z</time>
      </trkpt>
      <trkpt lat="51.220613075412" lon="4.508259564988">
        <ele>0</ele>
        <time>2020-06-21T15:18:47Z</time>
      </trkpt>
      <trkpt lat="51.22064174151" lon="4.508241292446">
        <ele>0</ele>
        <time>2020-06-21T15:18:49Z</time>
      </trkpt>
      <trkpt lat="51.221175836178" lon="4.508068792944">
        <ele>0</ele>
        <time>2020-06-21T15:19:14Z</time>
      </trkpt>
      <trkpt lat="51.221631560081" lon="4.507614913059">
        <ele>0</ele>
        <time>2020-06-21T15:19:38Z</time>
      </trkpt>
      <trkpt lat="51.221491330894" lon="4.506784015312">
        <ele>0</ele>
        <time>2020-06-21T15:20:01Z</time>
      </trkpt>
      <trkpt lat="51.221329644043" lon="4.505955799773">
        <ele>0</ele>
        <time>2020-06-21T15:20:23Z</time>
      </trkpt>
      <trkpt lat="51.22116058112" lon="4.505149041898">
        <ele>0</ele>
        <time>2020-06-21T15:20:39Z</time>
      </trkpt>
      <trkpt lat="51.22107424755" lon="4.505021301742">
        <ele>0</ele>
        <time>2020-06-21T15:20:43Z</time>
      </trkpt>
      <trkpt lat="51.221101824001" lon="4.504806557464">
        <ele>0</ele>
        <time>2020-06-21T15:20:48Z</time>
      </trkpt>
      <trkpt lat="51.221051113506" lon="4.503957638632">
        <ele>0</ele>
        <time>2020-06-21T15:21:11Z</time>
      </trkpt>
      <trkpt lat="51.220867633715" lon="4.503118442804">
        <ele>0</ele>
        <time>2020-06-21T15:21:32Z</time>
      </trkpt>
      <trkpt lat="51.220798315402" lon="4.502575044227">
        <ele>0</ele>
        <time>2020-06-21T15:21:49Z</time>
      </trkpt>
      <trkpt lat="51.220793202443" lon="4.502604045601">
        <ele>0</ele>
        <time>2020-06-21T15:23:58Z</time>
      </trkpt>
      <trkpt lat="51.220779288489" lon="4.502452668487">
        <ele>0</ele>
        <time>2020-06-21T15:24:09Z</time>
      </trkpt>
      <trkpt lat="51.220724051768" lon="4.501584722742">
        <ele>0</ele>
        <time>2020-06-21T15:24:33Z</time>
      </trkpt>
      <trkpt lat="51.220647860297" lon="4.500723733974">
        <ele>0</ele>
        <time>2020-06-21T15:24:51Z</time>
      </trkpt>
      <trkpt lat="51.220552222818" lon="4.499853692754">
        <ele>0</ele>
        <time>2020-06-21T15:25:08Z</time>
      </trkpt>
      <trkpt lat="51.220600167286" lon="4.498989183588">
        <ele>0</ele>
        <time>2020-06-21T15:25:26Z</time>
      </trkpt>
      <trkpt lat="51.220840224902" lon="4.498210505078">
        <ele>0</ele>
        <time>2020-06-21T15:25:45Z</time>
      </trkpt>
      <trkpt lat="51.220862353118" lon="4.498133643055">
        <ele>0</ele>
        <time>2020-06-21T15:25:51Z</time>
      </trkpt>
      <trkpt lat="51.220891857406" lon="4.498145629172">
        <ele>0</ele>
        <time>2020-06-21T15:25:55Z</time>
      </trkpt>
      <trkpt lat="51.22090744774" lon="4.498161554782">
        <ele>0</ele>
        <time>2020-06-21T15:25:57Z</time>
      </trkpt>
      <trkpt lat="51.221106182589" lon="4.498145880629">
        <ele>0.8</ele>
        <time>2020-06-21T15:26:13Z</time>
      </trkpt>
      <trkpt lat="51.221152031582" lon="4.498046806571">
        <ele>1.4</ele>
        <time>2020-06-21T15:26:17Z</time>
      </trkpt>
      <trkpt lat="51.221143062949" lon="4.497896435285">
        <ele>0.6</ele>
        <time>2020-06-21T15:26:21Z</time>
      </trkpt>
      <trkpt lat="51.220608716824" lon="4.497576749619">
        <ele>0.2</ele>
        <time>2020-06-21T15:26:39Z</time>
      </trkpt>
      <trkpt lat="51.220317948713" lon="4.497403076651">
        <ele>0</ele>
        <time>2020-06-21T15:26:49Z</time>
      </trkpt>
      <trkpt lat="51.22028970171" lon="4.49732269423">
        <ele>0</ele>
        <time>2020-06-21T15:26:51Z</time>
      </trkpt>
      <trkpt lat="51.220356086358" lon="4.496932013871">
        <ele>0</ele>
        <time>2020-06-21T15:27:00Z</time>
      </trkpt>
      <trkpt lat="51.220089709576" lon="4.496175463577">
        <ele>0</ele>
        <time>2020-06-21T15:27:19Z</time>
      </trkpt>
      <trkpt lat="51.219918551178" lon="4.49569995839">
        <ele>2</ele>
        <time>2020-06-21T15:27:31Z</time>
      </trkpt>
      <trkpt lat="51.21934841434" lon="4.495729714135">
        <ele>3.6</ele>
        <time>2020-06-21T15:27:47Z</time>
      </trkpt>
      <trkpt lat="51.21905337146" lon="4.495707166824">
        <ele>0.2</ele>
        <time>2020-06-21T15:27:54Z</time>
      </trkpt>
      <trkpt lat="51.218482815527" lon="4.49569995839">
        <ele>0</ele>
        <time>2020-06-21T15:28:05Z</time>
      </trkpt>
      <trkpt lat="51.218218366582" lon="4.495666933704">
        <ele>0</ele>
        <time>2020-06-21T15:28:13Z</time>
      </trkpt>
      <trkpt lat="51.217970010885" lon="4.494900576587">
        <ele>0</ele>
        <time>2020-06-21T15:28:35Z</time>
      </trkpt>
      <trkpt lat="51.217684858647" lon="4.494139332429">
        <ele>0</ele>
        <time>2020-06-21T15:28:55Z</time>
      </trkpt>
      <trkpt lat="51.21758821534" lon="4.493287479932">
        <ele>0</ele>
        <time>2020-06-21T15:29:11Z</time>
      </trkpt>
      <trkpt lat="51.217545383831" lon="4.492384246388">
        <ele>0</ele>
        <time>2020-06-21T15:29:28Z</time>
      </trkpt>
      <trkpt lat="51.217465085229" lon="4.490641230283">
        <ele>0</ele>
        <time>2020-06-21T15:30:01Z</time>
      </trkpt>
      <trkpt lat="51.217441280633" lon="4.490470071885">
        <ele>0</ele>
        <time>2020-06-21T15:30:04Z</time>
      </trkpt>
      <trkpt lat="51.217379589849" lon="4.489601539407">
        <ele>0</ele>
        <time>2020-06-21T15:30:20Z</time>
      </trkpt>
      <trkpt lat="51.217265428371" lon="4.488757565896">
        <ele>0</ele>
        <time>2020-06-21T15:30:36Z</time>
      </trkpt>
      <trkpt lat="51.217248664571" lon="4.488496637349">
        <ele>0</ele>
        <time>2020-06-21T15:30:41Z</time>
      </trkpt>
      <trkpt lat="51.217222177767" lon="4.488416003471">
        <ele>0</ele>
        <time>2020-06-21T15:30:43Z</time>
      </trkpt>
      <trkpt lat="51.217183118113" lon="4.487523163483">
        <ele>0</ele>
        <time>2020-06-21T15:31:02Z</time>
      </trkpt>
      <trkpt lat="51.217105166443" lon="4.486751609588">
        <ele>0</ele>
        <time>2020-06-21T15:31:18Z</time>
      </trkpt>
      <trkpt lat="51.21711296161" lon="4.48666427019">
        <ele>0</ele>
        <time>2020-06-21T15:31:20Z</time>
      </trkpt>
      <trkpt lat="51.217073231404" lon="4.486601741216">
        <ele>0</ele>
        <time>2020-06-21T15:31:22Z</time>
      </trkpt>
      <trkpt lat="51.217014139009" lon="4.48663241897">
        <ele>0</ele>
        <time>2020-06-21T15:31:24Z</time>
      </trkpt>
      <trkpt lat="51.216943311954" lon="4.48668522494">
        <ele>0</ele>
        <time>2020-06-21T15:31:26Z</time>
      </trkpt>
      <trkpt lat="51.216826468268" lon="4.48592833937">
        <ele>0</ele>
        <time>2020-06-21T15:31:43Z</time>
      </trkpt>
      <trkpt lat="51.216872233442" lon="4.485066260955">
        <ele>0</ele>
        <time>2020-06-21T15:32:01Z</time>
      </trkpt>
      <trkpt lat="51.216871059976" lon="4.4848613235">
        <ele>0</ele>
        <time>2020-06-21T15:32:05Z</time>
      </trkpt>
      <trkpt lat="51.216845076086" lon="4.484779013242">
        <ele>0</ele>
        <time>2020-06-21T15:32:07Z</time>
      </trkpt>
      <trkpt lat="51.21685815185" lon="4.484513726107">
        <ele>0</ele>
        <time>2020-06-21T15:32:12Z</time>
      </trkpt>
      <trkpt lat="51.216927218706" lon="4.483655671004">
        <ele>0</ele>
        <time>2020-06-21T15:32:31Z</time>
      </trkpt>
      <trkpt lat="51.216925039412" lon="4.483405219832">
        <ele>0</ele>
        <time>2020-06-21T15:32:38Z</time>
      </trkpt>
      <trkpt lat="51.216978432115" lon="4.482534759517">
        <ele>0</ele>
        <time>2020-06-21T15:32:57Z</time>
      </trkpt>
      <trkpt lat="51.21707356668" lon="4.482150533221">
        <ele>0</ele>
        <time>2020-06-21T15:33:10Z</time>
      </trkpt>
      <trkpt lat="51.217062502572" lon="4.482147012823">
        <ele>0</ele>
        <time>2020-06-21T15:33:26Z</time>
      </trkpt>
      <trkpt lat="51.217026376583" lon="4.481287197521">
        <ele>0</ele>
        <time>2020-06-21T15:33:46Z</time>
      </trkpt>
      <trkpt lat="51.217050348817" lon="4.480397542655">
        <ele>0</ele>
        <time>2020-06-21T15:34:04Z</time>
      </trkpt>
      <trkpt lat="51.217129893048" lon="4.479516856422">
        <ele>0</ele>
        <time>2020-06-21T15:34:26Z</time>
      </trkpt>
      <trkpt lat="51.217145567201" lon="4.478619071113">
        <ele>0</ele>
        <time>2020-06-21T15:34:47Z</time>
      </trkpt>
      <trkpt lat="51.217204575777" lon="4.477762021838">
        <ele>0</ele>
        <time>2020-06-21T15:35:06Z</time>
      </trkpt>
      <trkpt lat="51.217259896317" lon="4.476891393885">
        <ele>0</ele>
        <time>2020-06-21T15:35:27Z</time>
      </trkpt>
      <trkpt lat="51.217317982884" lon="4.475994195309">
        <ele>0</ele>
        <time>2020-06-21T15:35:46Z</time>
      </trkpt>
      <trkpt lat="51.217332399752" lon="4.475116694198">
        <ele>0</ele>
        <time>2020-06-21T15:36:02Z</time>
      </trkpt>
      <trkpt lat="51.217343128584" lon="4.47423139792">
        <ele>0</ele>
        <time>2020-06-21T15:36:16Z</time>
      </trkpt>
      <trkpt lat="51.217387636473" lon="4.473336211">
        <ele>0</ele>
        <time>2020-06-21T15:36:32Z</time>
      </trkpt>
      <trkpt lat="51.217436251493" lon="4.47244689141">
        <ele>0</ele>
        <time>2020-06-21T15:36:50Z</time>
      </trkpt>
      <trkpt lat="51.217478580088" lon="4.471585315909">
        <ele>0</ele>
        <time>2020-06-21T15:37:09Z</time>
      </trkpt>
      <trkpt lat="51.217568853151" lon="4.470704545857">
        <ele>0</ele>
        <time>2020-06-21T15:37:26Z</time>
      </trkpt>
      <trkpt lat="51.217505150711" lon="4.470221999874">
        <ele>0</ele>
        <time>2020-06-21T15:37:35Z</time>
      </trkpt>
      <trkpt lat="51.217595256136" lon="4.469404094072">
        <ele>0</ele>
        <time>2020-06-21T15:37:53Z</time>
      </trkpt>
      <trkpt lat="51.21755301136" lon="4.46851494212">
        <ele>0</ele>
        <time>2020-06-21T15:38:10Z</time>
      </trkpt>
      <trkpt lat="51.217615791791" lon="4.467657725207">
        <ele>0</ele>
        <time>2020-06-21T15:38:32Z</time>
      </trkpt>
      <trkpt lat="51.217639680206" lon="4.467271319617">
        <ele>0</ele>
        <time>2020-06-21T15:38:41Z</time>
      </trkpt>
      <trkpt lat="51.217629873383" lon="4.467196720707">
        <ele>0</ele>
        <time>2020-06-21T15:38:44Z</time>
      </trkpt>
      <trkpt lat="51.217636243627" lon="4.467169730989">
        <ele>0</ele>
        <time>2020-06-21T15:38:46Z</time>
      </trkpt>
      <trkpt lat="51.217712770374" lon="4.466290134403">
        <ele>0</ele>
        <time>2020-06-21T15:39:09Z</time>
      </trkpt>
      <trkpt lat="51.217742190843" lon="4.465417075699">
        <ele>0</ele>
        <time>2020-06-21T15:39:32Z</time>
      </trkpt>
      <trkpt lat="51.21777010257" lon="4.464557260397">
        <ele>0</ele>
        <time>2020-06-21T15:39:51Z</time>
      </trkpt>
      <trkpt lat="51.217780915221" lon="4.463903304559">
        <ele>0</ele>
        <time>2020-06-21T15:40:07Z</time>
      </trkpt>
      <trkpt lat="51.217880576012" lon="4.463069724604">
        <ele>0</ele>
        <time>2020-06-21T15:40:24Z</time>
      </trkpt>
      <trkpt lat="51.217873786673" lon="4.462173112761">
        <ele>0</ele>
        <time>2020-06-21T15:40:42Z</time>
      </trkpt>
      <trkpt lat="51.217877474709" lon="4.461314135649">
        <ele>0</ele>
        <time>2020-06-21T15:41:06Z</time>
      </trkpt>
      <trkpt lat="51.217940674235" lon="4.460505533756">
        <ele>0</ele>
        <time>2020-06-21T15:41:26Z</time>
      </trkpt>
      <trkpt lat="51.217880576012" lon="4.460443004782">
        <ele>1.4</ele>
        <time>2020-06-21T15:42:59Z</time>
      </trkpt>
      <trkpt lat="51.217893065043" lon="4.460386762233">
        <ele>2</ele>
        <time>2020-06-21T15:43:02Z</time>
      </trkpt>
      <trkpt lat="51.218001862105" lon="4.45949937048">
        <ele>0</ele>
        <time>2020-06-21T15:43:27Z</time>
      </trkpt>
      <trkpt lat="51.218037317542" lon="4.458631592373">
        <ele>0</ele>
        <time>2020-06-21T15:43:45Z</time>
      </trkpt>
      <trkpt lat="51.218134379944" lon="4.457752917796">
        <ele>0</ele>
        <time>2020-06-21T15:44:02Z</time>
      </trkpt>
      <trkpt lat="51.21815483178" lon="4.456877260703">
        <ele>0</ele>
        <time>2020-06-21T15:44:20Z</time>
      </trkpt>
      <trkpt lat="51.21822691612" lon="4.455977463738">
        <ele>0</ele>
        <time>2020-06-21T15:44:36Z</time>
      </trkpt>
      <trkpt lat="51.218263628842" lon="4.455105243224">
        <ele>0</ele>
        <time>2020-06-21T15:44:52Z</time>
      </trkpt>
      <trkpt lat="51.218302437039" lon="4.454236459289">
        <ele>0</ele>
        <time>2020-06-21T15:45:06Z</time>
      </trkpt>
      <trkpt lat="51.218283577764" lon="4.453304224371">
        <ele>0</ele>
        <time>2020-06-21T15:45:23Z</time>
      </trkpt>
      <trkpt lat="51.218291372931" lon="4.452434686065">
        <ele>0</ele>
        <time>2020-06-21T15:45:38Z</time>
      </trkpt>
      <trkpt lat="51.218485581554" lon="4.451783915349">
        <ele>0</ele>
        <time>2020-06-21T15:45:52Z</time>
      </trkpt>
      <trkpt lat="51.218992015952" lon="4.451989774813">
        <ele>0</ele>
        <time>2020-06-21T15:46:07Z</time>
      </trkpt>
      <trkpt lat="51.219514208322" lon="4.452076695116">
        <ele>0</ele>
        <time>2020-06-21T15:46:29Z</time>
      </trkpt>
      <trkpt lat="51.220070179749" lon="4.451981560551">
        <ele>0</ele>
        <time>2020-06-21T15:46:47Z</time>
      </trkpt>
      <trkpt lat="51.22061911038" lon="4.451895729895">
        <ele>5</ele>
        <time>2020-06-21T15:47:02Z</time>
      </trkpt>
      <trkpt lat="51.221157395998" lon="4.451822807365">
        <ele>6.8</ele>
        <time>2020-06-21T15:47:17Z</time>
      </trkpt>
      <trkpt lat="51.221673888676" lon="4.451579145532">
        <ele>2.2</ele>
        <time>2020-06-21T15:47:31Z</time>
      </trkpt>
      <trkpt lat="51.221863487254" lon="4.45142173345">
        <ele>0</ele>
        <time>2020-06-21T15:47:35Z</time>
      </trkpt>
      <trkpt lat="51.222001620966" lon="4.451328778179">
        <ele>0</ele>
        <time>2020-06-21T15:47:38Z</time>
      </trkpt>
      <trkpt lat="51.222163810731" lon="4.451229620302">
        <ele>0</ele>
        <time>2020-06-21T15:47:42Z</time>
      </trkpt>
      <trkpt lat="51.222730427171" lon="4.451110848779">
        <ele>0</ele>
        <time>2020-06-21T15:47:56Z</time>
      </trkpt>
      <trkpt lat="51.223276088861" lon="4.451244791541">
        <ele>0</ele>
        <time>2020-06-21T15:48:12Z</time>
      </trkpt>
      <trkpt lat="51.223818733067" lon="4.451392564438">
        <ele>0</ele>
        <time>2020-06-21T15:48:26Z</time>
      </trkpt>
      <trkpt lat="51.223904563723" lon="4.451393067352">
        <ele>0</ele>
        <time>2020-06-21T15:48:28Z</time>
      </trkpt>
      <trkpt lat="51.224069268058" lon="4.451324084315">
        <ele>0</ele>
        <time>2020-06-21T15:48:32Z</time>
      </trkpt>
      <trkpt lat="51.224479478244" lon="4.450746822862">
        <ele>0</ele>
        <time>2020-06-21T15:48:47Z</time>
      </trkpt>
      <trkpt lat="51.224881809444" lon="4.450114576145">
        <ele>0</ele>
        <time>2020-06-21T15:49:03Z</time>
      </trkpt>
      <trkpt lat="51.225364271608" lon="4.449740072853">
        <ele>0</ele>
        <time>2020-06-21T15:49:21Z</time>
      </trkpt>
      <trkpt lat="51.225891912213" lon="4.449599676028">
        <ele>0</ele>
        <time>2020-06-21T15:49:38Z</time>
      </trkpt>
      <trkpt lat="51.226114954572" lon="4.449305806614">
        <ele>0</ele>
        <time>2020-06-21T15:49:46Z</time>
      </trkpt>
      <trkpt lat="51.226298015268" lon="4.448880257551">
        <ele>0</ele>
        <time>2020-06-21T15:49:54Z</time>
      </trkpt>
      <trkpt lat="51.226634380915" lon="4.449325587898">
        <ele>0</ele>
        <time>2020-06-21T15:50:07Z</time>
      </trkpt>
      <trkpt lat="51.227115669613" lon="4.449037250538">
        <ele>0</ele>
        <time>2020-06-21T15:50:34Z</time>
      </trkpt>
      <trkpt lat="51.227481455729" lon="4.448369716022">
        <ele>0</ele>
        <time>2020-06-21T15:50:53Z</time>
      </trkpt>
      <trkpt lat="51.227864927654" lon="4.447758424055">
        <ele>0</ele>
        <time>2020-06-21T15:51:13Z</time>
      </trkpt>
      <trkpt lat="51.228257032936" lon="4.447148557011">
        <ele>0</ele>
        <time>2020-06-21T15:51:31Z</time>
      </trkpt>
      <trkpt lat="51.228286537224" lon="4.447158028558">
        <ele>0</ele>
        <time>2020-06-21T15:51:32Z</time>
      </trkpt>
      <trkpt lat="51.228606977261" lon="4.447855654095">
        <ele>0</ele>
        <time>2020-06-21T15:51:50Z</time>
      </trkpt>
      <trkpt lat="51.229017857999" lon="4.448412966626">
        <ele>0</ele>
        <time>2020-06-21T15:52:08Z</time>
      </trkpt>
      <trkpt lat="51.228954490835" lon="4.448571133079">
        <ele>0</ele>
        <time>2020-06-21T15:52:16Z</time>
      </trkpt>
      <trkpt lat="51.228839742624" lon="4.448661070866">
        <ele>0</ele>
        <time>2020-06-21T15:52:21Z</time>
      </trkpt>
    </trkseg>
  </trk>
</gpx>